BY6408 / G-OBYK 7700 Squawk Report (27th of June, 2022)

Time Lat Lon Altitude Heading Speed Vertical Rate
2022-06-27 12:02:17 GMT 53.540562 -2.591626 6,050 79 294 -540
2022-06-27 12:01:49 GMT 53.540562 -2.591626 6,250 79 294 -540
2022-06-27 12:01:45 GMT 53.539433 -2.599729 6,275 79 287 -540
2022-06-27 12:01:40 GMT 53.538216 -2.610817 6,300 79 279 -540
2022-06-27 12:01:28 GMT 53.535667 -2.637184 6,450 78 301 -540
2022-06-27 12:01:19 GMT 53.533234 -2.656433 6,500 80 299 -540
2022-06-27 12:01:18 GMT 53.533234 -2.656433 6,525 79 308 -600
2022-06-27 12:01:16 GMT 53.532928 -2.659792 6,550 79 303 -540
2022-06-27 12:01:13 GMT 53.531471 -2.671193 6,550 80 280 -480
2022-06-27 12:01:11 GMT 53.531471 -2.671193 6,575 80 280 -480
2022-06-27 12:01:08 GMT 53.530968 -2.676530 6,575 80 297 -600
2022-06-27 12:00:57 GMT 53.528000 -2.705867 6,725 78 305 -420
2022-06-27 12:00:54 GMT 53.528000 -2.705867 6,725 78 305 -420
2022-06-27 12:00:52 GMT 53.527653 -2.709457 6,750 72 306 -420
2022-06-27 12:00:43 GMT 53.525318 -2.730933 6,825 70 284 -300
2022-06-27 12:00:35 GMT 53.522816 -2.748833 6,925 61 324 -240
2022-06-27 12:00:24 GMT 53.515945 -2.770483 6,975 58 337 -60
2022-06-27 12:00:23 GMT 53.515945 -2.770483 6,975 56 341 -60
2022-06-27 12:00:21 GMT 53.514523 -2.774306 6,975 57 313 -60
2022-06-27 12:00:18 GMT 53.511791 -2.781638 7,000 57 350 -60
2022-06-27 12:00:17 GMT 53.511791 -2.781638 7,000 57 313 -60
2022-06-27 12:00:15 GMT 53.510769 -2.784383 7,000 57 326 -120
2022-06-27 12:00:11 GMT 53.507038 -2.793378 7,000 58 320 -180
2022-06-27 12:00:08 GMT 53.505840 -2.797504 7,000 57 345 -60
2022-06-27 12:00:04 GMT 53.502029 -2.807778 7,000 56 370 -120
2022-06-27 12:00:03 GMT 53.502029 -2.807778 7,000 55 326 -120
2022-06-27 12:00:01 GMT 53.500610 -2.811267 7,025 55 330 60
2022-06-27 11:59:58 GMT 53.497559 -2.818892 7,025 53 320 120
2022-06-27 11:59:54 GMT 53.494915 -2.825273 7,025 52 336 120
2022-06-27 11:59:53 GMT 53.493465 -2.828635 7,050 45 338 120
2022-06-27 11:59:51 GMT 53.489967 -2.835603 7,025 42 343 120
2022-06-27 11:59:48 GMT 53.489967 -2.835603 7,025 42 343 120
2022-06-27 11:59:47 GMT 53.489967 -2.835603 7,025 36 345 0
2022-06-27 11:59:45 GMT 53.488274 -2.838530 7,025 34 334 0
2022-06-27 11:59:43 GMT 53.486275 -2.841567 7,000 30 320 0
2022-06-27 11:59:41 GMT 53.484287 -2.844008 7,000 24 337 0
2022-06-27 11:59:39 GMT 53.482388 -2.846146 7,000 22 333 0
2022-06-27 11:59:36 GMT 53.477615 -2.850393 7,000 17 340 0
2022-06-27 11:59:33 GMT 53.469074 -2.854791 7,000 352 369 -60
2022-06-27 11:59:29 GMT 53.469074 -2.854791 7,000 352 369 -60
2022-06-27 11:59:26 GMT 53.466640 -2.855127 7,000 349 292 0
2022-06-27 11:59:23 GMT 53.461655 -2.854243 7,000 344 289 0
2022-06-27 11:59:16 GMT 53.442696 -2.847023 7,000 335 309 0
2022-06-27 11:59:11 GMT 53.442657 -2.846999 7,000 330 303 0
2022-06-27 11:59:06 GMT 53.442566 -2.846910 7,000 322 298 0
2022-06-27 11:59:01 GMT 53.436703 -2.840430 7,000 310 269 -60
2022-06-27 11:58:59 GMT 53.434788 -2.838208 7,000 307 285 -120
2022-06-27 11:58:58 GMT 53.434788 -2.838208 7,000 303 278 -60
2022-06-27 11:58:55 GMT 53.432335 -2.833088 7,000 294 293 -60
2022-06-27 11:58:53 GMT 53.431080 -2.829072 7,000 293 254 -60
2022-06-27 11:58:51 GMT 53.430477 -2.826790 7,000 288 284 -60
2022-06-27 11:58:48 GMT 53.428158 -2.820945 7,000 286 273 -60
2022-06-27 11:58:47 GMT 53.425026 -2.806065 7,000 274 265 60
2022-06-27 11:58:40 GMT 53.425026 -2.806065 7,025 274 265 60
2022-06-27 11:58:39 GMT 53.425026 -2.806065 7,025 268 272 60
2022-06-27 11:58:32 GMT 53.423748 -2.789961 7,025 258 256 60
2022-06-27 11:58:29 GMT 53.423813 -2.787430 7,025 255 255 120
2022-06-27 11:58:22 GMT 53.425739 -2.772847 7,000 245 276 0
2022-06-27 11:58:21 GMT 53.425739 -2.772847 7,000 242 268 0
2022-06-27 11:58:19 GMT 53.426594 -2.769114 7,000 241 244 0
2022-06-27 11:58:17 GMT 53.427219 -2.766623 7,000 240 240 0
2022-06-27 11:58:10 GMT 53.431408 -2.753918 6,975 237 253 -60
2022-06-27 11:58:03 GMT 53.435246 -2.743271 7,000 236 255 0
2022-06-27 11:58:00 GMT 53.435928 -2.741265 7,000 236 290 0
2022-06-27 11:57:52 GMT 53.441936 -2.726151 7,025 236 338 120
2022-06-27 11:57:51 GMT 53.441936 -2.726151 7,000 235 284 60
2022-06-27 11:57:49 GMT 53.444946 -2.718920 7,000 236 278 60
2022-06-27 11:57:45 GMT 53.446354 -2.715326 7,000 236 265 0
2022-06-27 11:57:43 GMT 53.448006 -2.711151 7,000 237 289 0
2022-06-27 11:57:41 GMT 53.448036 -2.711056 7,000 238 262 0
2022-06-27 11:57:38 GMT 53.449387 -2.707197 7,000 240 282 0
2022-06-27 11:57:32 GMT 53.454285 -2.695511 6,975 238 268 -60
2022-06-27 11:57:31 GMT 53.454285 -2.695511 6,975 234 275 -60
2022-06-27 11:57:24 GMT 53.458866 -2.681736 6,975 233 267 -60
2022-06-27 11:57:23 GMT 53.458866 -2.681736 7,000 233 267 -60
2022-06-27 11:57:20 GMT 53.460171 -2.675239 7,000 227 262 0
2022-06-27 11:57:18 GMT 53.461838 -2.674630 7,000 232 264 0
2022-06-27 11:57:12 GMT 53.467426 -2.664554 7,000 235 276 0
2022-06-27 11:57:11 GMT 53.467426 -2.664554 7,000 235 260 0
2022-06-27 11:57:08 GMT 53.469292 -2.659925 7,000 234 257 -60
2022-06-27 11:57:01 GMT 53.474220 -2.647448 7,025 229 276 0
2022-06-27 11:56:53 GMT 53.479404 -2.635164 7,025 222 261 0
2022-06-27 11:56:52 GMT 53.479404 -2.635164 7,000 228 320 0
2022-06-27 11:56:49 GMT 53.481644 -2.631027 7,000 228 315 0
2022-06-27 11:56:43 GMT 53.487785 -2.622227 7,000 220 289 0
2022-06-27 11:56:38 GMT 53.491146 -2.617622 7,025 188 267 0
2022-06-27 11:56:31 GMT 53.498775 -2.597896 7,000 155 318 0
2022-06-27 11:56:24 GMT 53.504971 -2.596670 7,025 145 353 0
2022-06-27 11:56:17 GMT 53.516792 -2.614301 7,000 157 294 0
2022-06-27 11:56:16 GMT 53.516792 -2.614301 7,000 152 289 0
2022-06-27 11:56:09 GMT 53.525585 -2.620248 7,000 144 384 -60
2022-06-27 11:56:08 GMT 53.525585 -2.620248 7,000 144 279 -60
2022-06-27 11:56:06 GMT 53.527382 -2.621528 7,000 133 284 0
2022-06-27 11:56:03 GMT 53.531006 -2.625619 7,000 96 416 0
2022-06-27 11:56:01 GMT 53.533096 -2.628970 7,000 95 307 0
2022-06-27 11:55:58 GMT 53.538471 -2.636799 7,000 80 275 0
2022-06-27 11:55:54 GMT 53.538471 -2.636799 7,000 80 275 0
2022-06-27 11:55:51 GMT 53.539223 -2.643495 7,025 77 261 0
2022-06-27 11:55:34 GMT 53.535763 -2.715691 7,000 57 297 0
2022-06-27 11:55:23 GMT 53.535751 -2.715737 7,000 41 328 60
2022-06-27 11:55:15 GMT 53.528419 -2.726290 7,025 25 327 0
2022-06-27 11:55:10 GMT 53.528419 -2.726290 7,000 25 327 0
2022-06-27 11:55:07 GMT 53.528252 -2.726456 7,000 19 346 0
2022-06-27 11:55:04 GMT 53.524364 -2.730219 7,000 15 333 0
2022-06-27 11:55:01 GMT 53.519131 -2.733410 7,000 8 345 0
2022-06-27 11:54:58 GMT 53.516846 -2.734099 7,000 354 423 0
2022-06-27 11:54:55 GMT 53.512081 -2.735492 7,000 351 293 -60
2022-06-27 11:54:50 GMT 53.503139 -2.735071 7,000 346 291 0
2022-06-27 11:54:41 GMT 53.486023 -2.728393 7,000 345 300 0
2022-06-27 11:54:37 GMT 53.485973 -2.728372 7,000 343 288 -60
2022-06-27 11:54:33 GMT 53.485809 -2.728290 7,000 346 335 0
2022-06-27 11:54:29 GMT 53.478603 -2.724732 7,025 347 322 0
2022-06-27 11:54:27 GMT 53.478523 -2.724697 7,025 348 331 0
2022-06-27 11:54:24 GMT 53.474689 -2.723047 7,025 353 345 0
2022-06-27 11:54:22 GMT 53.472427 -2.722290 7,000 14 435 60
2022-06-27 11:54:19 GMT 53.467117 -2.720870 7,000 17 328 0
2022-06-27 11:54:18 GMT 53.467117 -2.720870 7,025 18 291 0
2022-06-27 11:54:14 GMT 53.460892 -2.719025 7,025 32 330 0
2022-06-27 11:54:12 GMT 53.457897 -2.720421 7,025 36 280 0
2022-06-27 11:54:04 GMT 53.439980 -2.738091 7,000 77 419 0
2022-06-27 11:53:58 GMT 53.439980 -2.738091 7,000 77 419 0
2022-06-27 11:53:55 GMT 53.439838 -2.738381 7,000 80 332 0
2022-06-27 11:53:51 GMT 53.434334 -2.749780 7,025 84 295 0
2022-06-27 11:53:47 GMT 53.434299 -2.749970 7,025 87 280 0
2022-06-27 11:53:44 GMT 53.433022 -2.756808 7,025 92 279 0
2022-06-27 11:53:31 GMT 53.433167 -2.816038 7,000 108 275 0
2022-06-27 11:53:23 GMT 53.433170 -2.816061 7,000 116 288 0
2022-06-27 11:53:18 GMT 53.433178 -2.816088 7,000 123 258 0
2022-06-27 11:53:15 GMT 53.433186 -2.816103 7,000 130 268 0
2022-06-27 11:53:13 GMT 53.434433 -2.819070 7,025 134 268 0
2022-06-27 11:53:11 GMT 53.435703 -2.821426 7,000 137 272 0
2022-06-27 11:53:07 GMT 53.437927 -2.825067 7,000 142 324 0
2022-06-27 11:53:05 GMT 53.440044 -2.828961 7,000 149 307 0
2022-06-27 11:53:03 GMT 53.443443 -2.833376 7,000 160 300 -60
2022-06-27 11:53:01 GMT 53.443443 -2.833376 7,000 160 300 -60
2022-06-27 11:52:58 GMT 53.446682 -2.836413 7,000 162 296 -60
2022-06-27 11:52:56 GMT 53.448872 -2.838168 7,000 171 279 -60
2022-06-27 11:52:52 GMT 53.454060 -2.842274 7,000 176 260 60
2022-06-27 11:52:50 GMT 53.464119 -2.844948 7,000 189 277 120
2022-06-27 11:52:44 GMT 53.473946 -2.843736 7,000 204 272 180
2022-06-27 11:52:35 GMT 53.473946 -2.843736 7,025 204 272 180
2022-06-27 11:52:34 GMT 53.473946 -2.843736 7,025 205 275 60
2022-06-27 11:52:27 GMT 53.483231 -2.838124 7,000 216 292 0
2022-06-27 11:52:26 GMT 53.483231 -2.838124 7,000 224 296 -180
2022-06-27 11:52:24 GMT 53.484650 -2.836244 6,975 228 403 -60
2022-06-27 11:52:22 GMT 53.486092 -2.833854 6,975 227 272 -60
2022-06-27 11:52:19 GMT 53.491371 -2.827123 6,975 232 260 0
2022-06-27 11:52:17 GMT 53.491371 -2.827123 6,975 232 260 0
2022-06-27 11:52:15 GMT 53.492638 -2.822373 6,975 231 265 0
2022-06-27 11:52:10 GMT 53.500488 -2.805703 7,000 237 261 0
2022-06-27 11:52:03 GMT 53.500500 -2.805702 7,000 228 237 -60
2022-06-27 11:52:01 GMT 53.502331 -2.805454 7,000 238 274 -60
2022-06-27 11:51:52 GMT 53.508400 -2.789475 7,000 238 277 -60
2022-06-27 11:51:51 GMT 53.509674 -2.785281 7,000 238 265 60
2022-06-27 11:51:48 GMT 53.509674 -2.785281 7,000 238 265 60
2022-06-27 11:51:41 GMT 53.514736 -2.771608 7,025 238 284 60
2022-06-27 11:51:34 GMT 53.518799 -2.760557 7,025 243 280 -60
2022-06-27 11:51:33 GMT 53.518799 -2.760557 7,025 243 268 0
2022-06-27 11:51:31 GMT 53.519882 -2.757699 7,025 246 269 0
2022-06-27 11:51:23 GMT 53.524841 -2.743576 7,000 254 328 0
2022-06-27 11:51:22 GMT 53.524841 -2.743576 7,025 255 262 60
2022-06-27 11:51:13 GMT 53.529228 -2.724035 7,025 274 280 60
2022-06-27 11:51:10 GMT 53.529682 -2.719413 7,025 276 270 0
2022-06-27 11:51:07 GMT 53.530041 -2.708427 7,025 279 264 0
2022-06-27 11:51:03 GMT 53.529831 -2.704745 7,025 294 324 0
2022-06-27 11:51:01 GMT 53.529831 -2.704745 7,000 294 324 0
2022-06-27 11:50:53 GMT 53.526962 -2.687236 7,000 300 313 0
2022-06-27 11:50:50 GMT 53.526596 -2.683744 7,000 306 268 0
2022-06-27 11:50:33 GMT 53.514439 -2.644551 7,000 314 238 0
2022-06-27 11:50:25 GMT 53.507626 -2.624753 7,000 323 196 0
2022-06-27 11:50:20 GMT 53.504517 -2.620674 7,000 307 295 0
2022-06-27 11:50:14 GMT 53.499607 -2.610780 6,975 308 281 0
2022-06-27 11:50:07 GMT 53.495789 -2.613528 7,000 300 387 0
2022-06-27 11:50:04 GMT 53.493103 -2.608850 7,000 299 392 0
2022-06-27 11:50:02 GMT 53.491508 -2.605079 7,000 299 375 0
2022-06-27 11:49:55 GMT 53.484875 -2.576742 7,000 309 271 0
2022-06-27 11:49:50 GMT 53.480896 -2.568953 7,000 309 286 0
2022-06-27 11:49:43 GMT 53.476006 -2.556749 7,000 306 312 0
2022-06-27 11:49:39 GMT 53.473064 -2.551225 7,000 305 318 0
2022-06-27 11:49:36 GMT 53.468601 -2.544717 7,000 303 328 0
2022-06-27 11:49:33 GMT 53.466129 -2.538065 7,000 302 339 0
2022-06-27 11:49:30 GMT 53.466129 -2.538065 7,000 302 339 0
2022-06-27 11:49:26 GMT 53.462318 -2.525489 7,000 310 256 0
2022-06-27 11:49:24 GMT 53.461311 -2.522895 7,000 311 278 0
2022-06-27 11:49:20 GMT 53.457993 -2.518345 7,000 310 275 0
2022-06-27 11:49:19 GMT 53.456341 -2.513405 7,000 314 269 0
2022-06-27 11:49:17 GMT 53.456341 -2.513405 7,000 314 269 0
2022-06-27 11:49:14 GMT 53.453999 -2.510020 7,000 311 267 0
2022-06-27 11:49:10 GMT 53.450386 -2.501865 7,000 309 274 0
2022-06-27 11:49:06 GMT 53.448074 -2.499550 7,000 306 298 0
2022-06-27 11:49:02 GMT 53.444504 -2.492518 7,000 306 310 0
2022-06-27 11:49:01 GMT 53.444504 -2.492518 7,000 306 310 0
2022-06-27 11:48:57 GMT 53.440571 -2.481116 7,000 311 261 0
2022-06-27 11:48:53 GMT 53.438557 -2.477733 7,000 305 327 0
2022-06-27 11:48:48 GMT 53.434032 -2.466248 7,000 310 430 0
2022-06-27 11:48:45 GMT 53.432232 -2.465129 7,000 308 340 0
2022-06-27 11:48:43 GMT 53.428497 -2.454903 7,000 312 285 0
2022-06-27 11:48:40 GMT 53.425503 -2.447572 7,000 313 247 0
2022-06-27 11:48:37 GMT 53.425503 -2.447572 7,000 313 247 0
2022-06-27 11:48:23 GMT 53.402927 -2.402855 7,025 321 181 0
2022-06-27 11:48:13 GMT 53.402912 -2.402835 7,000 313 222 60
2022-06-27 11:48:08 GMT 53.402901 -2.402825 7,000 327 171 0
2022-06-27 11:48:04 GMT 53.398075 -2.399598 7,025 310 411 0
2022-06-27 11:48:00 GMT 53.398045 -2.399535 7,000 304 368 0
2022-06-27 11:47:56 GMT 53.397907 -2.399224 7,000 308 300 0
2022-06-27 11:47:51 GMT 53.393082 -2.391835 7,000 303 352 -60
2022-06-27 11:47:41 GMT 53.377392 -2.356835 7,000 305 337 0
2022-06-27 11:47:36 GMT 53.377377 -2.356801 7,025 304 292 0
2022-06-27 11:47:31 GMT 53.377357 -2.356731 7,025 302 300 0
2022-06-27 11:47:24 GMT 53.369488 -2.328217 7,000 317 166 0
2022-06-27 11:47:20 GMT 53.366844 -2.325215 7,025 318 203 0
2022-06-27 11:47:14 GMT 53.362164 -2.322437 7,025 307 288 0
2022-06-27 11:47:10 GMT 53.362152 -2.322389 7,000 308 291 0
2022-06-27 11:47:07 GMT 53.360619 -2.314432 7,000 315 268 0
2022-06-27 11:47:03 GMT 53.358410 -2.310902 7,000 312 310 0
2022-06-27 11:46:55 GMT 53.350163 -2.299750 7,000 308 299 0
2022-06-27 11:46:52 GMT 53.347775 -2.294296 7,000 309 301 -60
2022-06-27 11:46:50 GMT 53.346081 -2.291067 7,000 307 307 -60
2022-06-27 11:46:35 GMT 53.332619 -2.262412 7,000 302 314 0
2022-06-27 11:46:33 GMT 53.332577 -2.262329 7,000 307 312 -60
2022-06-27 11:46:31 GMT 53.331020 -2.259390 7,000 305 329 0
2022-06-27 11:46:27 GMT 53.327690 -2.250850 7,025 308 334 0
2022-06-27 11:46:24 GMT 53.326344 -2.247968 7,025 309 345 0
2022-06-27 11:46:21 GMT 53.323593 -2.242144 7,025 309 328 0
2022-06-27 11:46:18 GMT 53.320484 -2.235372 7,025 308 349 0
2022-06-27 11:46:17 GMT 53.320484 -2.235372 7,025 309 326 0
2022-06-27 11:46:14 GMT 53.317909 -2.230626 7,025 308 323 60
2022-06-27 11:46:11 GMT 53.314575 -2.223899 7,025 309 344 120
2022-06-27 11:46:10 GMT 53.314575 -2.223899 7,025 304 307 60
2022-06-27 11:46:08 GMT 53.313259 -2.219818 7,025 310 290 60
2022-06-27 11:46:05 GMT 53.310181 -2.214478 7,025 307 334 0
2022-06-27 11:46:04 GMT 53.310181 -2.214478 7,000 306 334 0
2022-06-27 11:46:01 GMT 53.307739 -2.208452 7,025 309 331 0
2022-06-27 11:46:00 GMT 53.307739 -2.208452 7,000 307 339 0
2022-06-27 11:45:57 GMT 53.305157 -2.203702 7,000 304 337 0
2022-06-27 11:45:54 GMT 53.302425 -2.196821 7,000 307 326 0
2022-06-27 11:45:52 GMT 53.300354 -2.192548 7,000 307 305 0
2022-06-27 11:45:51 GMT 53.300354 -2.192548 7,000 307 305 0
2022-06-27 11:45:47 GMT 53.296680 -2.183592 7,000 310 313 0
2022-06-27 11:45:44 GMT 53.295341 -2.181010 7,000 308 312 0
2022-06-27 11:45:41 GMT 53.292152 -2.174881 7,000 308 309 0
2022-06-27 11:45:40 GMT 53.292152 -2.174881 7,000 308 309 0
2022-06-27 11:45:38 GMT 53.290695 -2.172313 7,000 306 307 60
2022-06-27 11:45:34 GMT 53.287468 -2.164087 7,025 306 311 0
2022-06-27 11:45:32 GMT 53.286079 -2.161389 7,000 306 301 0
2022-06-27 11:45:28 GMT 53.282089 -2.152952 7,000 308 275 0
2022-06-27 11:45:24 GMT 53.279949 -2.148277 7,000 307 278 0
2022-06-27 11:45:18 GMT 53.275028 -2.135940 7,000 308 276 0
2022-06-27 11:45:17 GMT 53.275028 -2.135940 7,000 307 290 0
2022-06-27 11:44:08 GMT 53.221092 -2.023666 7,000 307 290 0
2022-06-27 11:43:54 GMT 53.209908 -1.997712 7,000 309 288 0
2022-06-27 11:43:42 GMT 53.201241 -1.979983 7,025 309 296 60
2022-06-27 11:43:36 GMT 53.195770 -1.969656 7,000 307 310 0
2022-06-27 11:43:33 GMT 53.192982 -1.963943 7,000 308 299 60
2022-06-27 11:43:27 GMT 53.189419 -1.955513 7,000 307 303 0
2022-06-27 11:43:24 GMT 53.186565 -1.950242 7,000 307 307 -60
2022-06-27 11:43:21 GMT 53.183895 -1.944143 7,000 310 296 -60
2022-06-27 11:43:20 GMT 53.183895 -1.944143 7,000 308 290 0
2022-06-27 11:43:15 GMT 53.180222 -1.937085 7,000 306 330 -60
2022-06-27 11:43:02 GMT 53.167042 -1.908289 7,050 309 297 120
2022-06-27 11:42:59 GMT 53.167042 -1.908289 7,025 306 317 60
2022-06-27 11:42:56 GMT 53.159058 -1.890244 7,025 307 320 0
2022-06-27 11:42:51 GMT 53.159000 -1.890118 7,000 306 314 0
2022-06-27 11:42:48 GMT 53.159000 -1.890118 7,000 306 314 0
2022-06-27 11:42:43 GMT 53.154823 -1.881095 7,000 305 333 0
2022-06-27 11:42:39 GMT 53.150490 -1.871347 7,000 308 530 0
2022-06-27 11:42:38 GMT 53.150490 -1.871347 7,000 307 382 0
2022-06-27 11:42:36 GMT 53.149239 -1.867698 7,000 308 327 0
2022-06-27 11:42:34 GMT 53.147823 -1.865213 7,000 307 300 0
2022-06-27 11:42:31 GMT 53.145466 -1.859271 7,000 308 290 0
2022-06-27 11:42:13 GMT 53.114086 -1.792984 7,000 309 304 0
2022-06-27 11:42:03 GMT 53.114067 -1.792943 7,000 309 334 0
2022-06-27 11:41:57 GMT 53.114067 -1.792942 7,025 312 319 0
2022-06-27 11:41:53 GMT 53.113972 -1.792752 7,025 312 356 120
2022-06-27 11:41:51 GMT 53.113972 -1.792752 7,025 312 356 120
2022-06-27 11:41:47 GMT 53.109653 -1.784883 7,000 312 322 0
2022-06-27 11:41:46 GMT 53.109653 -1.784883 7,025 312 322 0
2022-06-27 11:41:44 GMT 53.107979 -1.782227 7,000 309 349 0
2022-06-27 11:41:41 GMT 53.104767 -1.776561 7,000 311 355 0
2022-06-27 11:41:40 GMT 53.104767 -1.776561 7,000 308 336 0
2022-06-27 11:41:36 GMT 53.100315 -1.767231 7,000 310 351 0
2022-06-27 11:41:35 GMT 53.097126 -1.760238 7,000 311 334 0
2022-06-27 11:41:32 GMT 53.097126 -1.760238 7,000 311 334 0
2022-06-27 11:41:31 GMT 53.097126 -1.760238 7,000 311 346 0
2022-06-27 11:41:27 GMT 53.090435 -1.748391 7,000 312 357 0
2022-06-27 11:41:24 GMT 53.090435 -1.748391 7,000 312 357 0
2022-06-27 11:41:23 GMT 53.085926 -1.739155 7,000 314 332 0
2022-06-27 11:41:19 GMT 53.085926 -1.739155 7,000 314 332 0
2022-06-27 11:41:18 GMT 53.085926 -1.739155 7,000 313 320 0
2022-06-27 11:41:16 GMT 53.084152 -1.736169 7,000 314 339 0
2022-06-27 11:41:14 GMT 53.082104 -1.732922 7,000 315 316 0
2022-06-27 11:41:11 GMT 53.080738 -1.730326 7,000 311 322 0
2022-06-27 11:41:07 GMT 53.076519 -1.722382 7,000 312 352 0
2022-06-27 11:41:05 GMT 53.074184 -1.718762 7,000 310 340 0
2022-06-27 11:41:04 GMT 53.074184 -1.718762 7,000 310 340 0
2022-06-27 11:41:01 GMT 53.071171 -1.712672 7,000 313 332 0
2022-06-27 11:40:56 GMT 53.066608 -1.704127 7,000 311 354 0
2022-06-27 11:40:52 GMT 53.063423 -1.697878 7,000 310 311 0
2022-06-27 11:40:51 GMT 53.061996 -1.694384 7,000 313 306 0
2022-06-27 11:40:46 GMT 53.058922 -1.689154 7,000 312 315 0
2022-06-27 11:40:45 GMT 53.058922 -1.689154 7,000 310 315 0
2022-06-27 11:40:39 GMT 53.052647 -1.677695 7,000 310 336 0
2022-06-27 11:40:38 GMT 53.052647 -1.677695 7,000 307 326 0
2022-06-27 11:40:35 GMT 53.049931 -1.673018 7,000 296 568 0
2022-06-27 11:40:31 GMT 53.046875 -1.665571 7,000 296 316 0
2022-06-27 11:40:29 GMT 53.045280 -1.662663 7,000 295 287 0
2022-06-27 11:40:27 GMT 53.043812 -1.658191 7,000 295 267 0
2022-06-27 11:39:54 GMT 53.003666 -1.515411 7,025 283 257 0
2022-06-27 11:39:35 GMT 53.003662 -1.515376 7,000 267 263 0
2022-06-27 11:39:21 GMT 53.003662 -1.515333 7,000 251 322 0
2022-06-27 11:39:13 GMT 53.003666 -1.515296 7,025 246 290 -60
2022-06-27 11:39:08 GMT 53.003742 -1.515058 7,025 236 267 -120
2022-06-27 11:39:04 GMT 53.003742 -1.515058 7,025 236 267 -120
2022-06-27 11:39:02 GMT 53.004871 -1.511648 7,000 231 266 -120
2022-06-27 11:38:57 GMT 53.010548 -1.496475 6,975 222 274 -120
2022-06-27 11:38:54 GMT 53.010559 -1.496451 7,000 218 276 0
2022-06-27 11:38:52 GMT 53.010597 -1.496390 7,050 213 253 -60
2022-06-27 11:38:49 GMT 53.012886 -1.492818 7,025 200 268 60
2022-06-27 11:38:45 GMT 53.020897 -1.483907 7,000 184 273 -120
2022-06-27 11:38:41 GMT 53.020897 -1.483907 7,025 184 273 -120
2022-06-27 11:38:39 GMT 53.022907 -1.482158 7,025 181 258 0
2022-06-27 11:38:24 GMT 53.040756 -1.476504 7,000 150 292 -60
2022-06-27 11:38:23 GMT 53.051704 -1.481438 7,025 140 276 -120
2022-06-27 11:38:15 GMT 53.051704 -1.481438 6,950 140 276 -120
2022-06-27 11:38:14 GMT 53.051704 -1.481438 7,000 127 303 60
2022-06-27 11:38:03 GMT 53.071873 -1.507371 7,000 117 276 0
2022-06-27 11:37:55 GMT 53.071873 -1.507372 7,000 109 279 60
2022-06-27 11:37:52 GMT 53.072903 -1.511900 7,025 95 274 0
2022-06-27 11:37:41 GMT 53.077656 -1.540421 7,025 84 315 0
2022-06-27 11:37:36 GMT 53.077656 -1.540465 7,000 75 437 0
2022-06-27 11:37:34 GMT 53.077652 -1.540533 7,000 74 358 -60
2022-06-27 11:37:31 GMT 53.077377 -1.546681 6,975 73 301 0
2022-06-27 11:37:25 GMT 53.073936 -1.569186 7,000 72 294 0
2022-06-27 11:37:22 GMT 53.073936 -1.569186 7,000 72 294 0
2022-06-27 11:37:11 GMT 53.064713 -1.617241 7,000 72 297 -60
2022-06-27 11:37:04 GMT 53.064705 -1.617269 7,000 72 294 0
2022-06-27 11:36:58 GMT 53.064697 -1.617312 7,000 71 305 60
2022-06-27 11:36:55 GMT 53.062801 -1.627042 7,000 72 322 60
2022-06-27 11:36:53 GMT 53.062801 -1.627042 7,025 72 322 60
2022-06-27 11:36:51 GMT 53.062016 -1.630860 7,025 72 302 60
2022-06-27 11:36:49 GMT 53.061394 -1.633885 7,025 78 318 60
2022-06-27 11:36:46 GMT 53.060242 -1.639284 7,025 79 315 60
2022-06-27 11:36:37 GMT 53.056480 -1.661205 7,000 88 320 0
2022-06-27 11:36:36 GMT 53.056480 -1.661205 7,000 93 283 0
2022-06-27 11:36:29 GMT 53.056114 -1.679201 7,000 100 322 0
2022-06-27 11:36:28 GMT 53.056114 -1.679201 6,975 102 297 0
2022-06-27 11:36:26 GMT 53.056641 -1.682522 7,000 104 304 0
2022-06-27 11:36:24 GMT 53.056824 -1.686229 7,000 106 287 0
2022-06-27 11:36:21 GMT 53.059612 -1.707179 7,000 107 298 -60
2022-06-27 11:36:15 GMT 53.059612 -1.707179 7,000 107 298 -60
2022-06-27 11:36:14 GMT 53.059612 -1.707179 7,000 107 289 -60
2022-06-27 11:36:05 GMT 53.063770 -1.726446 7,000 105 319 -60
2022-06-27 11:36:04 GMT 53.063770 -1.726446 7,000 105 296 -60
2022-06-27 11:35:57 GMT 53.066639 -1.743547 7,025 108 296 60
2022-06-27 11:35:56 GMT 53.066639 -1.743547 7,000 105 310 60
2022-06-27 11:35:54 GMT 53.067101 -1.747265 7,025 106 297 60
2022-06-27 11:35:52 GMT 53.067757 -1.750674 7,025 109 301 60
2022-06-27 11:35:50 GMT 53.068333 -1.754407 7,025 110 283 60
2022-06-27 11:35:46 GMT 53.069778 -1.762117 7,025 112 287 60
2022-06-27 11:35:39 GMT 53.072811 -1.778905 7,000 121 299 0
2022-06-27 11:35:38 GMT 53.072811 -1.778905 7,000 121 282 0
2022-06-27 11:35:32 GMT 53.076405 -1.790726 7,000 126 287 -60
2022-06-27 11:35:31 GMT 53.076405 -1.790726 7,000 132 292 -60
2022-06-27 11:35:27 GMT 53.078758 -1.798359 7,000 137 284 -60
2022-06-27 11:35:22 GMT 53.083870 -1.807973 7,000 144 282 -60
2022-06-27 11:35:21 GMT 53.083870 -1.807973 7,000 147 289 -60
2022-06-27 11:35:12 GMT 53.093010 -1.819710 7,000 155 292 60
2022-06-27 11:35:11 GMT 53.093010 -1.819710 7,025 160 280 60
2022-06-27 11:35:08 GMT 53.096432 -1.822135 7,025 166 289 120
2022-06-27 11:35:02 GMT 53.104149 -1.828477 7,025 172 288 120
2022-06-27 11:35:01 GMT 53.104149 -1.828477 7,025 180 282 120
2022-06-27 11:34:58 GMT 53.107738 -1.829391 7,000 183 272 60
2022-06-27 11:34:50 GMT 53.118320 -1.830228 7,000 197 274 0
2022-06-27 11:34:49 GMT 53.118320 -1.830228 7,000 206 274 0
2022-06-27 11:34:42 GMT 53.127193 -1.827425 6,975 214 287 -120
2022-06-27 11:34:41 GMT 53.127193 -1.827425 6,975 219 277 -120
2022-06-27 11:34:37 GMT 53.131424 -1.823986 6,975 222 275 -120
2022-06-27 11:34:35 GMT 53.133083 -1.821974 6,975 226 287 -120
2022-06-27 11:34:27 GMT 53.141788 -1.809869 7,000 230 274 -60
2022-06-27 11:34:19 GMT 53.147594 -1.798716 7,000 232 299 0
2022-06-27 11:34:12 GMT 53.152893 -1.786778 7,025 231 289 60
2022-06-27 11:34:11 GMT 53.152893 -1.786778 7,025 230 271 0
2022-06-27 11:34:03 GMT 53.159389 -1.772592 7,025 219 298 -60
2022-06-27 11:34:02 GMT 53.159389 -1.772592 7,000 208 288 -120
2022-06-27 11:34:00 GMT 53.160748 -1.770468 7,000 207 285 -120
2022-06-27 11:33:58 GMT 53.162277 -1.768125 7,000 203 286 -60
2022-06-27 11:33:52 GMT 53.169724 -1.759886 7,000 195 297 60
2022-06-27 11:33:44 GMT 53.179092 -1.755418 7,025 179 314 60
2022-06-27 11:33:43 GMT 53.179092 -1.755418 7,025 169 390 60
2022-06-27 11:33:41 GMT 53.181400 -1.754492 7,025 166 323 180
2022-06-27 11:33:39 GMT 53.183750 -1.754335 7,050 163 294 120
2022-06-27 11:33:36 GMT 53.190067 -1.756400 7,025 153 286 60
2022-06-27 11:33:27 GMT 53.205151 -1.765483 7,000 142 306 0
2022-06-27 11:33:23 GMT 53.205173 -1.765509 6,975 139 315 0
2022-06-27 11:33:21 GMT 53.205242 -1.765600 7,000 136 307 -60
2022-06-27 11:33:17 GMT 53.212509 -1.775505 6,975 128 309 0
2022-06-27 11:33:13 GMT 53.212509 -1.775505 7,000 128 309 0
2022-06-27 11:33:10 GMT 53.215275 -1.780529 7,000 124 316 0
2022-06-27 11:33:08 GMT 53.216888 -1.784049 7,000 126 331 0
2022-06-27 11:33:06 GMT 53.218224 -1.786897 7,000 125 321 0
2022-06-27 11:33:03 GMT 53.223724 -1.801079 7,000 128 304 0
2022-06-27 11:32:58 GMT 53.223724 -1.801079 7,000 128 304 0
2022-06-27 11:32:52 GMT 53.230087 -1.814235 7,000 127 325 0
2022-06-27 11:32:48 GMT 53.232288 -1.818311 7,000 127 300 0
2022-06-27 11:32:42 GMT 53.236950 -1.828305 6,975 127 305 -60
2022-06-27 11:32:39 GMT 53.247044 -1.850273 7,000 129 321 0
2022-06-27 11:32:31 GMT 53.247044 -1.850273 7,000 129 321 0
2022-06-27 11:32:30 GMT 53.247044 -1.850273 7,000 126 297 0
2022-06-27 11:32:28 GMT 53.248150 -1.853257 7,025 128 304 0
2022-06-27 11:32:26 GMT 53.249718 -1.855679 7,000 128 323 60
2022-06-27 11:32:19 GMT 53.256523 -1.870494 7,000 129 322 60
2022-06-27 11:32:18 GMT 53.257355 -1.873284 7,000 129 322 0
2022-06-27 11:32:16 GMT 53.257355 -1.873284 7,000 129 322 0
2022-06-27 11:32:08 GMT 53.264259 -1.887591 7,000 130 383 -60
2022-06-27 11:32:02 GMT 53.271057 -1.900073 6,975 127 311 -60
2022-06-27 11:31:58 GMT 53.275459 -1.909617 7,000 128 295 -120
2022-06-27 11:31:56 GMT 53.282299 -1.923636 6,975 127 306 0
2022-06-27 11:31:51 GMT 53.282299 -1.923636 7,000 127 306 0
2022-06-27 11:31:47 GMT 53.282413 -1.923942 7,000 124 298 0
2022-06-27 11:31:45 GMT 53.285511 -1.930355 7,025 15 156 0
2022-06-27 11:31:43 GMT 53.285511 -1.930355 7,025 15 156 0
2022-06-27 11:31:40 GMT 53.287384 -1.934694 7,050 13 139 0
2022-06-27 11:31:34 GMT 53.292152 -1.946715 7,050 7 142 0
2022-06-27 11:31:21 GMT 53.301502 -1.969373 7,000 358 168 0
2022-06-27 11:31:14 GMT 53.302986 -1.981524 7,025 305 283 0
2022-06-27 11:29:53 GMT 53.207668 -1.963250 7,025 303 302 0
2022-06-27 11:29:35 GMT 53.207657 -1.963219 7,000 303 293 0
2022-06-27 11:29:26 GMT 53.207657 -1.963219 7,000 303 293 0
2022-06-27 11:29:21 GMT 53.203358 -1.951761 7,000 301 296 60
2022-06-27 11:29:16 GMT 53.203358 -1.951761 7,025 301 296 60
2022-06-27 11:29:15 GMT 53.196648 -1.936531 7,025 293 287 60
2022-06-27 11:29:07 GMT 53.196648 -1.936531 7,025 293 287 60
2022-06-27 11:29:06 GMT 53.196648 -1.936531 7,025 283 290 60
2022-06-27 11:29:01 GMT 53.193977 -1.929072 7,000 275 291 0
2022-06-27 11:28:57 GMT 53.192215 -1.921231 7,000 270 281 0
2022-06-27 11:28:54 GMT 53.191521 -1.915269 7,000 264 283 0
2022-06-27 11:28:46 GMT 53.191540 -1.895105 7,000 253 279 0
2022-06-27 11:28:43 GMT 53.192043 -1.891444 7,000 244 271 0
2022-06-27 11:28:38 GMT 53.193626 -1.883354 7,000 236 296 -60
2022-06-27 11:28:34 GMT 53.195866 -1.875392 7,000 229 311 0
2022-06-27 11:28:29 GMT 53.200020 -1.865112 7,000 224 306 0
2022-06-27 11:28:26 GMT 53.201611 -1.862121 7,000 212 291 -60
2022-06-27 11:28:24 GMT 53.203384 -1.859220 7,000 210 274 -60
2022-06-27 11:28:21 GMT 53.207096 -1.854312 7,000 206 291 0
2022-06-27 11:28:19 GMT 53.207138 -1.854270 7,025 201 276 0
2022-06-27 11:28:17 GMT 53.208553 -1.852951 7,025 197 280 0
2022-06-27 11:28:10 GMT 53.218037 -1.845727 7,000 182 289 -60
2022-06-27 11:28:09 GMT 53.220005 -1.845403 7,025 169 321 120
2022-06-27 11:28:07 GMT 53.220005 -1.845403 7,025 169 321 120
2022-06-27 11:28:05 GMT 53.222343 -1.844503 7,025 165 285 60
2022-06-27 11:28:03 GMT 53.224270 -1.844857 7,025 165 274 60
2022-06-27 11:28:01 GMT 53.249832 -1.856412 7,025 150 285 60
2022-06-27 11:27:52 GMT 53.249832 -1.856412 7,025 150 285 60
2022-06-27 11:27:45 GMT 53.249840 -1.856420 7,000 142 316 0
2022-06-27 11:27:42 GMT 53.249901 -1.856500 7,000 136 315 -120
2022-06-27 11:27:40 GMT 53.249901 -1.856500 6,975 136 315 -120
2022-06-27 11:27:36 GMT 53.253510 -1.862198 7,000 131 330 0
2022-06-27 11:27:34 GMT 53.255089 -1.864893 7,000 131 321 0
2022-06-27 11:27:30 GMT 53.258736 -1.870692 7,000 126 295 60
2022-06-27 11:27:28 GMT 53.266010 -1.886427 7,000 130 292 60
2022-06-27 11:27:22 GMT 53.266010 -1.886427 7,000 130 292 60
2022-06-27 11:27:18 GMT 53.268723 -1.893305 7,000 129 305 0
2022-06-27 11:27:16 GMT 53.268787 -1.893431 7,000 130 307 0
2022-06-27 11:27:12 GMT 53.272255 -1.900124 7,000 129 318 -60
2022-06-27 11:27:10 GMT 53.273781 -1.903030 6,975 128 317 -60
2022-06-27 11:27:07 GMT 53.278004 -1.911464 6,975 127 324 -120
2022-06-27 11:27:03 GMT 53.279633 -1.914674 6,975 128 317 -240
2022-06-27 11:27:01 GMT 53.281120 -1.918074 7,000 128 303 -60
2022-06-27 11:26:59 GMT 53.282581 -1.921582 7,000 128 283 0
2022-06-27 11:26:56 GMT 53.284931 -1.927262 7,000 123 280 0
2022-06-27 11:26:54 GMT 53.286465 -1.930153 7,000 109 310 0
2022-06-27 11:26:46 GMT 53.293678 -1.943919 7,025 105 293 0
2022-06-27 11:26:45 GMT 53.293678 -1.943919 7,025 104 275 0
2022-06-27 11:26:43 GMT 53.294544 -1.946192 7,050 99 274 0
2022-06-27 11:26:28 GMT 53.303696 -1.974790 7,000 83 289 -60
2022-06-27 11:26:17 GMT 53.303436 -2.011782 7,000 58 268 0
2022-06-27 11:26:13 GMT 53.303432 -2.011813 7,025 22 243 0
2022-06-27 11:26:11 GMT 53.303394 -2.011970 7,000 354 212 0
2022-06-27 11:26:07 GMT 53.301331 -2.019617 7,000 339 243 0
2022-06-27 11:26:05 GMT 53.288342 -2.041813 7,000 328 240 16980
2022-06-27 11:25:51 GMT 53.288342 -2.041813 7,000 328 240 16980
2022-06-27 11:25:17 GMT 53.246956 -2.043573 7,000 308 273 0
2022-06-27 11:24:47 GMT 53.221840 -1.995654 7,000 306 272 0
2022-06-27 11:24:33 GMT 53.203197 -1.954305 7,000 305 285 -60
2022-06-27 11:24:26 GMT 53.203186 -1.954280 7,000 305 290 -60
2022-06-27 11:24:20 GMT 53.199554 -1.944486 7,000 306 274 60
2022-06-27 11:24:16 GMT 53.199554 -1.944486 7,025 306 274 60
2022-06-27 11:24:15 GMT 53.199554 -1.944486 7,025 294 275 60
2022-06-27 11:24:13 GMT 53.198277 -1.942128 7,025 291 270 60
2022-06-27 11:24:10 GMT 53.196346 -1.936622 7,025 283 270 0
2022-06-27 11:24:08 GMT 53.195351 -1.934158 7,025 281 264 0
2022-06-27 11:24:06 GMT 53.194397 -1.932018 7,025 272 272 0
2022-06-27 11:23:56 GMT 53.190891 -1.909907 7,000 264 266 0
2022-06-27 11:23:48 GMT 53.190990 -1.894342 7,000 245 264 0
2022-06-27 11:23:47 GMT 53.190990 -1.894342 7,000 245 264 0
2022-06-27 11:23:40 GMT 53.193169 -1.879741 7,000 237 271 0
2022-06-27 11:23:39 GMT 53.193169 -1.879741 7,000 234 261 0
2022-06-27 11:23:36 GMT 53.194614 -1.874937 7,000 230 256 0
2022-06-27 11:23:28 GMT 53.200726 -1.859571 7,000 210 259 -60
2022-06-27 11:23:27 GMT 53.200726 -1.859571 7,000 210 259 -60
2022-06-27 11:23:24 GMT 53.203026 -1.855848 7,000 208 251 0
2022-06-27 11:23:22 GMT 53.206688 -1.851295 7,025 193 254 0
2022-06-27 11:23:19 GMT 53.206688 -1.851295 7,000 193 254 0
2022-06-27 11:23:15 GMT 53.210911 -1.846719 7,000 185 258 0
2022-06-27 11:23:07 GMT 53.220161 -1.840911 7,000 175 271 0
2022-06-27 11:23:06 GMT 53.220161 -1.840911 7,025 168 273 0
2022-06-27 11:22:58 GMT 53.229176 -1.840781 7,025 163 278 120
2022-06-27 11:22:54 GMT 53.233963 -1.841581 7,025 153 296 120
2022-06-27 11:22:50 GMT 53.249855 -1.851349 7,025 137 281 0
2022-06-27 11:22:41 GMT 53.249855 -1.851349 7,000 137 281 0
2022-06-27 11:22:34 GMT 53.256676 -1.861623 7,000 128 288 -60
2022-06-27 11:22:33 GMT 53.257767 -1.864044 6,975 128 284 0
2022-06-27 11:22:26 GMT 53.261559 -1.871486 6,975 126 302 0
2022-06-27 11:22:18 GMT 53.267647 -1.885093 7,000 127 301 0
2022-06-27 11:22:14 GMT 53.270847 -1.892045 7,000 126 320 0
2022-06-27 11:22:10 GMT 53.273712 -1.900011 7,000 129 280 0
2022-06-27 11:22:07 GMT 53.276539 -1.903464 7,000 127 279 0
2022-06-27 11:22:00 GMT 53.282555 -1.918170 7,000 127 273 0
2022-06-27 11:21:59 GMT 53.282555 -1.918170 7,000 123 276 0
2022-06-27 11:21:51 GMT 53.290211 -1.935204 7,000 104 347 0
2022-06-27 11:21:48 GMT 53.290314 -1.935380 7,000 102 283 -60
2022-06-27 11:21:44 GMT 53.293526 -1.940617 7,025 99 264 0
2022-06-27 11:21:32 GMT 53.302223 -1.959999 7,025 87 282 0
2022-06-27 11:21:27 GMT 53.303867 -1.973042 6,975 73 269 0
2022-06-27 11:21:14 GMT 53.301552 -2.023422 7,000 52 278 0
2022-06-27 11:21:06 GMT 53.301548 -2.023424 7,000 9 236 0
2022-06-27 11:21:02 GMT 53.301460 -2.023647 7,025 337 270 0
2022-06-27 11:21:00 GMT 53.300198 -2.026733 7,050 335 249 0
2022-06-27 11:20:50 GMT 53.290661 -2.042597 7,000 328 246 0
2022-06-27 11:20:42 GMT 53.282063 -2.049680 7,000 322 261 0
2022-06-27 11:20:07 GMT 53.241013 -2.030702 7,000 308 286 0
2022-06-27 11:19:35 GMT 53.202515 -1.950022 7,000 305 289 0
2022-06-27 11:19:26 GMT 53.202484 -1.949952 7,000 304 300 60
2022-06-27 11:19:18 GMT 53.202484 -1.949952 7,025 304 300 60
2022-06-27 11:19:14 GMT 53.198956 -1.941909 7,025 300 307 60
2022-06-27 11:19:12 GMT 53.197292 -1.937453 7,025 289 316 60
2022-06-27 11:19:10 GMT 53.194878 -1.931039 7,025 284 309 0
2022-06-27 11:19:07 GMT 53.194878 -1.931039 7,000 284 309 0
2022-06-27 11:19:05 GMT 53.193550 -1.927631 7,000 274 351 -60
2022-06-27 11:19:03 GMT 53.192787 -1.923761 7,000 271 300 0
2022-06-27 11:18:55 GMT 53.190666 -1.903817 7,000 262 353 -60
2022-06-27 11:18:52 GMT 53.190792 -1.899759 7,000 257 284 -60
2022-06-27 11:18:47 GMT 53.192261 -1.882798 7,000 245 313 0
2022-06-27 11:18:44 GMT 53.193481 -1.876663 7,025 237 286 60
2022-06-27 11:18:40 GMT 53.193504 -1.876585 7,025 233 287 0
2022-06-27 11:18:38 GMT 53.199982 -1.859505 7,025 220 314 0
2022-06-27 11:18:31 GMT 53.199982 -1.859505 7,025 220 314 0
2022-06-27 11:18:27 GMT 53.202682 -1.855013 7,000 212 308 0
2022-06-27 11:18:23 GMT 53.206089 -1.850610 7,000 204 286 -60
2022-06-27 11:18:20 GMT 53.209702 -1.847231 7,000 197 281 -60
2022-06-27 11:18:18 GMT 53.211777 -1.845719 7,000 193 288 0
2022-06-27 11:18:16 GMT 53.214138 -1.843644 7,000 179 289 0
2022-06-27 11:18:13 GMT 53.218666 -1.841310 7,000 176 282 0
2022-06-27 11:18:11 GMT 53.218777 -1.841278 7,000 171 284 0
2022-06-27 11:18:05 GMT 53.226265 -1.839120 7,025 155 293 0
2022-06-27 11:18:01 GMT 53.231491 -1.839155 7,025 151 288 0
2022-06-27 11:17:52 GMT 53.244007 -1.845080 7,000 142 289 0
2022-06-27 11:17:51 GMT 53.244007 -1.845080 7,000 136 290 0
2022-06-27 11:17:47 GMT 53.248508 -1.849529 7,000 130 297 0
2022-06-27 11:17:38 GMT 53.257973 -1.864206 7,000 127 300 0
2022-06-27 11:17:37 GMT 53.261932 -1.870618 7,000 128 290 0
2022-06-27 11:17:32 GMT 53.267086 -1.881937 7,000 128 284 0
2022-06-27 11:17:26 GMT 53.275307 -1.901665 7,000 118 283 0
2022-06-27 11:17:16 GMT 53.275307 -1.901665 7,025 118 283 0
2022-06-27 11:17:06 GMT 53.289948 -1.930339 7,000 108 267 0
2022-06-27 11:16:57 GMT 53.289948 -1.930339 7,000 108 267 0
2022-06-27 11:16:50 GMT 53.295582 -1.942015 7,050 42 170 0
2022-06-27 11:16:23 GMT 53.307594 -1.998816 6,975 14 218 0
2022-06-27 11:16:22 GMT 53.306568 -2.006665 7,000 339 235 0
2022-06-27 11:16:18 GMT 53.306568 -2.006665 7,000 339 235 0
2022-06-27 11:16:16 GMT 53.305485 -2.008741 7,000 305 282 0
2022-06-27 11:15:11 GMT 53.237434 -2.028375 6,975 305 282 0
2022-06-27 11:14:42 GMT 53.197662 -1.935418 7,000 298 308 0
2022-06-27 11:14:30 GMT 53.197643 -1.935378 7,025 296 296 0
2022-06-27 11:14:20 GMT 53.197632 -1.935338 7,025 292 279 0
2022-06-27 11:14:17 GMT 53.190598 -1.903752 7,025 271 295 0
2022-06-27 11:14:04 GMT 53.190598 -1.903752 7,000 271 295 0
2022-06-27 11:14:01 GMT 53.190594 -1.903698 7,000 263 297 -60
2022-06-27 11:13:58 GMT 53.190598 -1.903518 7,000 237 447 0
2022-06-27 11:13:56 GMT 53.190662 -1.899910 7,025 235 336 0
2022-06-27 11:13:52 GMT 53.191734 -1.888189 7,025 231 295 0
2022-06-27 11:13:50 GMT 53.191776 -1.888065 7,025 229 246 0
2022-06-27 11:13:37 GMT 53.213936 -1.845896 7,000 207 256 0
2022-06-27 11:13:29 GMT 53.213951 -1.845873 7,000 198 267 0
2022-06-27 11:13:24 GMT 53.213989 -1.845845 7,000 184 294 0
2022-06-27 11:13:18 GMT 53.213989 -1.845845 7,000 184 294 0
2022-06-27 11:13:12 GMT 53.221619 -1.841047 7,025 172 300 60
2022-06-27 11:13:08 GMT 53.226986 -1.841141 7,025 168 303 60
2022-06-27 11:13:06 GMT 53.229317 -1.840982 7,025 163 298 60
2022-06-27 11:13:04 GMT 53.231358 -1.841349 7,000 156 301 0
2022-06-27 11:12:59 GMT 53.238312 -1.843702 7,000 145 315 0
2022-06-27 11:12:57 GMT 53.243912 -1.847799 7,000 133 379 0
2022-06-27 11:12:52 GMT 53.245800 -1.849926 7,000 132 291 0
2022-06-27 11:12:49 GMT 53.248886 -1.854440 7,000 131 294 0
2022-06-27 11:12:47 GMT 53.250614 -1.858267 7,000 131 300 0
2022-06-27 11:12:33 GMT 53.277260 -1.907221 7,000 130 287 0
2022-06-27 11:12:25 GMT 53.277260 -1.907221 7,025 130 287 0
2022-06-27 11:12:16 GMT 53.277279 -1.907255 6,975 128 287 0
2022-06-27 11:12:12 GMT 53.280418 -1.913935 7,000 125 296 0
2022-06-27 11:12:07 GMT 53.290577 -1.934511 7,000 118 288 0
2022-06-27 11:12:03 GMT 53.290577 -1.934511 7,000 118 288 0
2022-06-27 11:11:59 GMT 53.290707 -1.934799 7,000 109 295 0
2022-06-27 11:11:55 GMT 53.293697 -1.941539 7,025 106 290 0
2022-06-27 11:11:42 GMT 53.305820 -1.985779 7,000 27 220 0
2022-06-27 11:11:33 GMT 53.305820 -1.985779 7,000 27 220 0
2022-06-27 11:11:25 GMT 53.304996 -2.006053 7,000 2 213 0
2022-06-27 11:11:24 GMT 53.304996 -2.006053 7,000 334 254 0
2022-06-27 11:11:15 GMT 53.300568 -2.023390 7,025 329 250 0
2022-06-27 11:10:42 GMT 53.264072 -2.053136 7,025 311 283 0
2022-06-27 11:10:23 GMT 53.242592 -2.038551 6,975 304 275 0
2022-06-27 11:10:03 GMT 53.225502 -2.005019 7,025 301 258 0
2022-06-27 11:09:36 GMT 53.191055 -1.912074 7,000 292 263 0
2022-06-27 11:09:24 GMT 53.191040 -1.912028 7,025 287 261 0
2022-06-27 11:09:16 GMT 53.191029 -1.911990 7,000 274 273 0
2022-06-27 11:09:10 GMT 53.191025 -1.911926 7,000 263 263 0
2022-06-27 11:09:06 GMT 53.191025 -1.911926 7,000 263 263 0
2022-06-27 11:08:59 GMT 53.190918 -1.895747 7,025 247 288 0
2022-06-27 11:08:58 GMT 53.190918 -1.895747 7,025 245 269 0
2022-06-27 11:08:51 GMT 53.192810 -1.881459 7,000 222 392 0
2022-06-27 11:08:50 GMT 53.192810 -1.881459 7,000 221 317 0
2022-06-27 11:08:48 GMT 53.193642 -1.878241 7,000 219 249 0
2022-06-27 11:08:41 GMT 53.199772 -1.864008 7,000 211 257 0
2022-06-27 11:08:40 GMT 53.219406 -1.844057 7,000 196 259 0
2022-06-27 11:08:30 GMT 53.219406 -1.844057 7,000 196 259 0
2022-06-27 11:08:25 GMT 53.219418 -1.844050 7,000 187 265 0
2022-06-27 11:08:18 GMT 53.221390 -1.843340 7,000 168 298 60
2022-06-27 11:08:16 GMT 53.221390 -1.843340 7,025 168 298 60
2022-06-27 11:08:12 GMT 53.225418 -1.842990 7,025 161 294 0
2022-06-27 11:08:07 GMT 53.235546 -1.845060 7,025 141 327 0
2022-06-27 11:08:04 GMT 53.235546 -1.845060 7,000 141 327 0
2022-06-27 11:07:57 GMT 53.244801 -1.852677 7,000 135 284 0
2022-06-27 11:07:56 GMT 53.244801 -1.852677 7,000 134 283 0
2022-06-27 11:07:53 GMT 53.264786 -1.884899 7,000 129 288 0
2022-06-27 11:07:44 GMT 53.264786 -1.884899 7,000 129 288 0
2022-06-27 11:07:38 GMT 53.264797 -1.884921 7,000 128 290 0
2022-06-27 11:07:33 GMT 53.264809 -1.884947 7,000 129 294 0
2022-06-27 11:07:28 GMT 53.269005 -1.893948 6,975 130 285 -60
2022-06-27 11:07:19 GMT 53.277306 -1.910148 7,000 129 289 0
2022-06-27 11:07:15 GMT 53.287052 -1.930341 7,000 119 310 0
2022-06-27 11:07:06 GMT 53.287052 -1.930341 7,000 119 310 0
2022-06-27 11:06:57 GMT 53.293564 -1.944332 7,025 110 291 0
2022-06-27 11:06:45 GMT 53.302181 -1.969189 7,025 91 292 0
2022-06-27 11:06:43 GMT 53.303173 -1.972811 7,025 89 285 0
2022-06-27 11:06:39 GMT 53.304737 -1.984792 7,025 74 293 0
2022-06-27 11:06:36 GMT 53.304733 -1.985096 7,025 53 322 0
2022-06-27 11:06:32 GMT 53.304592 -1.995012 7,000 48 262 0
2022-06-27 11:06:23 GMT 53.302227 -2.015303 7,000 33 273 0
2022-06-27 11:06:22 GMT 53.295120 -2.032652 7,000 342 310 0
2022-06-27 11:06:13 GMT 53.295120 -2.032652 7,025 342 310 0
2022-06-27 11:06:01 GMT 53.273674 -2.051891 7,000 332 300 0
2022-06-27 11:05:53 GMT 53.273643 -2.051895 7,025 326 264 0
2022-06-27 11:05:47 GMT 53.265236 -2.052958 7,025 320 269 0
2022-06-27 11:05:38 GMT 53.253883 -2.047116 7,000 313 278 0
2022-06-27 11:05:16 GMT 53.219021 -1.990002 7,000 306 319 0
2022-06-27 11:05:08 GMT 53.219006 -1.989973 7,000 307 294 -60
2022-06-27 11:04:58 GMT 53.218990 -1.989938 7,000 304 290 -60
2022-06-27 11:04:55 GMT 53.216545 -1.984778 6,975 305 281 -60
2022-06-27 11:04:48 GMT 53.211002 -1.972050 7,000 305 305 -120
2022-06-27 11:04:43 GMT 53.204857 -1.955767 7,000 307 282 0
2022-06-27 11:04:40 GMT 53.204845 -1.955743 7,000 303 287 0
2022-06-27 11:04:38 GMT 53.204819 -1.955694 7,000 296 283 0
2022-06-27 11:04:35 GMT 53.198738 -1.943208 7,050 290 272 0
2022-06-27 11:04:31 GMT 53.193485 -1.929544 7,050 274 275 0
2022-06-27 11:04:22 GMT 53.193485 -1.929544 7,000 274 275 0
2022-06-27 11:04:11 GMT 53.190147 -1.902370 7,000 253 280 -60
2022-06-27 11:04:01 GMT 53.191784 -1.885364 7,000 243 274 -60
2022-06-27 11:03:53 GMT 53.196606 -1.868156 7,000 226 261 0
2022-06-27 11:03:50 GMT 53.196686 -1.867980 7,000 214 272 60
2022-06-27 11:03:46 GMT 53.199223 -1.862665 7,025 211 281 60
2022-06-27 11:03:44 GMT 53.208130 -1.850837 7,000 197 289 0
2022-06-27 11:03:37 GMT 53.208130 -1.850837 7,000 197 289 0
2022-06-27 11:03:29 GMT 53.217609 -1.844512 7,025 185 284 0
2022-06-27 11:03:23 GMT 53.225536 -1.842564 7,000 169 284 60
2022-06-27 11:03:21 GMT 53.229633 -1.842434 7,025 156 292 0
2022-06-27 11:03:17 GMT 53.229633 -1.842434 7,025 156 292 0
2022-06-27 11:03:09 GMT 53.240597 -1.848008 7,000 136 453 0
2022-06-27 11:03:08 GMT 53.243912 -1.850082 7,000 134 282 0
2022-06-27 11:03:05 GMT 53.245960 -1.852490 7,000 132 281 0
2022-06-27 11:03:03 GMT 53.245960 -1.852490 7,000 132 281 0
2022-06-27 11:02:59 GMT 53.250389 -1.857938 7,000 131 286 0
2022-06-27 11:02:49 GMT 53.268391 -1.892764 7,000 129 292 0
2022-06-27 11:02:42 GMT 53.268402 -1.892790 7,000 129 304 0
2022-06-27 11:02:36 GMT 53.268417 -1.892819 6,975 129 304 -60
2022-06-27 11:02:31 GMT 53.272816 -1.901845 6,975 130 308 -60
2022-06-27 11:02:29 GMT 53.274582 -1.904227 6,975 127 308 -60
2022-06-27 11:02:26 GMT 53.277088 -1.910449 6,975 129 295 -120
2022-06-27 11:02:24 GMT 53.278755 -1.913742 6,975 128 286 0
2022-06-27 11:02:22 GMT 53.279984 -1.915825 6,975 125 288 0
2022-06-27 11:02:19 GMT 53.282162 -1.921226 7,000 124 281 0
2022-06-27 11:02:15 GMT 53.285439 -1.927641 7,000 120 284 0
2022-06-27 11:02:13 GMT 53.286728 -1.930069 7,000 118 279 0
2022-06-27 11:02:04 GMT 53.294060 -1.946270 7,025 103 275 0
2022-06-27 11:01:52 GMT 53.302116 -1.967682 7,025 93 278 0
2022-06-27 11:01:48 GMT 53.303989 -1.974794 7,025 70 270 0
2022-06-27 11:01:44 GMT 53.304977 -1.983864 7,000 63 266 0
2022-06-27 11:01:42 GMT 53.304977 -1.987080 7,000 0 200 0
2022-06-27 11:01:31 GMT 53.303013 -2.012753 7,000 351 213 0
2022-06-27 11:01:12 GMT 53.288403 -2.042662 7,000 329 264 0
2022-06-27 11:01:10 GMT 53.286598 -2.043614 7,000 304 285 -120
2022-06-27 11:00:07 GMT 53.217224 -1.986440 7,000 304 285 -120
2022-06-27 11:00:02 GMT 53.217175 -1.986221 7,000 305 273 -60
2022-06-27 10:59:59 GMT 53.202240 -1.953326 6,975 303 304 0
2022-06-27 10:59:48 GMT 53.202240 -1.953326 6,975 303 304 0
2022-06-27 10:59:44 GMT 53.202217 -1.953276 7,025 304 277 0
2022-06-27 10:59:41 GMT 53.202156 -1.953110 7,000 298 286 120
2022-06-27 10:59:38 GMT 53.196144 -1.935948 7,050 287 273 60
2022-06-27 10:59:32 GMT 53.196144 -1.935948 7,025 287 273 60
2022-06-27 10:59:28 GMT 53.193172 -1.928457 7,025 281 289 60
2022-06-27 10:59:27 GMT 53.193172 -1.928457 7,025 273 273 60
2022-06-27 10:59:22 GMT 53.190796 -1.915178 7,025 265 269 0
2022-06-27 10:59:13 GMT 53.190063 -1.900061 7,000 250 331 0
2022-06-27 10:59:12 GMT 53.190063 -1.900061 7,000 249 280 -60
2022-06-27 10:59:04 GMT 53.191830 -1.882390 7,000 241 263 -60
2022-06-27 10:59:03 GMT 53.192852 -1.878350 7,000 228 265 0
2022-06-27 10:59:01 GMT 53.198921 -1.862083 7,000 223 265 0
2022-06-27 10:58:55 GMT 53.198921 -1.862083 7,000 223 265 0
2022-06-27 10:58:52 GMT 53.198933 -1.862059 7,000 216 261 0
2022-06-27 10:58:50 GMT 53.198975 -1.861995 7,000 210 249 0
2022-06-27 10:58:48 GMT 53.200375 -1.859868 7,000 199 262 0
2022-06-27 10:58:40 GMT 53.208775 -1.849344 7,025 191 262 0
2022-06-27 10:58:39 GMT 53.208775 -1.849344 7,025 182 268 0
2022-06-27 10:58:35 GMT 53.212917 -1.846543 7,025 179 262 0
2022-06-27 10:58:32 GMT 53.215405 -1.846269 7,000 177 271 0
2022-06-27 10:58:20 GMT 53.231220 -1.842403 7,000 162 298 60
2022-06-27 10:58:19 GMT 53.231220 -1.842403 7,000 155 287 60
2022-06-27 10:58:12 GMT 53.240868 -1.847507 7,000 143 411 0
2022-06-27 10:58:11 GMT 53.240868 -1.847507 7,000 141 322 60
2022-06-27 10:58:09 GMT 53.242775 -1.849051 7,000 139 298 0
2022-06-27 10:58:07 GMT 53.244785 -1.851638 7,000 136 292 0
2022-06-27 10:58:05 GMT 53.246590 -1.854463 7,000 131 322 0
2022-06-27 10:58:00 GMT 53.255360 -1.867552 7,000 128 291 0
2022-06-27 10:57:57 GMT 53.255371 -1.867576 7,000 130 289 0
2022-06-27 10:57:55 GMT 53.255402 -1.867630 7,000 128 390 -60
2022-06-27 10:57:52 GMT 53.257717 -1.872164 6,975 127 310 -60
2022-06-27 10:57:40 GMT 53.269115 -1.897946 7,000 127 290 -60
2022-06-27 10:57:37 GMT 53.273262 -1.904020 7,000 125 281 0
2022-06-27 10:57:33 GMT 53.273262 -1.904020 7,000 125 281 0
2022-06-27 10:57:22 GMT 53.290997 -1.943937 7,000 120 277 0
2022-06-27 10:57:13 GMT 53.290997 -1.943939 7,025 110 303 0
2022-06-27 10:57:09 GMT 53.291092 -1.944125 7,025 109 268 60
2022-06-27 10:57:07 GMT 53.292343 -1.946465 7,025 103 268 0
2022-06-27 10:56:51 GMT 53.303043 -1.974919 7,000 71 269 0
2022-06-27 10:56:45 GMT 53.303802 -1.988367 7,025 61 269 0
2022-06-27 10:56:40 GMT 53.303856 -2.006313 7,025 12 217 0
2022-06-27 10:56:36 GMT 53.303848 -2.006349 7,000 358 213 0
2022-06-27 10:56:32 GMT 53.302181 -2.015258 7,000 348 220 0
2022-06-27 10:56:16 GMT 53.289356 -2.041695 7,000 334 249 0
2022-06-27 10:56:11 GMT 53.283463 -2.046180 7,000 306 337 0
2022-06-27 10:55:27 GMT 53.233501 -2.021163 7,000 306 337 0
2022-06-27 10:55:14 GMT 53.223286 -1.999802 7,000 305 320 -60
2022-06-27 10:55:05 GMT 53.215900 -1.984166 7,000 304 292 -120
2022-06-27 10:55:02 GMT 53.213902 -1.978984 7,000 306 295 -60
2022-06-27 10:54:59 GMT 53.210846 -1.974468 7,000 303 301 -60
2022-06-27 10:54:52 GMT 53.201649 -1.949687 7,025 303 338 60
2022-06-27 10:54:48 GMT 53.201630 -1.949636 7,025 304 301 60
2022-06-27 10:54:45 GMT 53.201565 -1.949520 7,025 305 294 60
2022-06-27 10:54:43 GMT 53.198368 -1.943798 7,050 297 293 120
2022-06-27 10:54:41 GMT 53.198368 -1.943798 7,025 297 293 120
2022-06-27 10:54:37 GMT 53.194767 -1.933108 7,025 291 316 0
2022-06-27 10:54:35 GMT 53.194759 -1.933094 7,025 291 280 0
2022-06-27 10:54:32 GMT 53.192871 -1.928468 7,000 283 299 0
2022-06-27 10:54:30 GMT 53.191505 -1.921183 7,000 274 286 0
2022-06-27 10:54:23 GMT 53.189400 -1.909265 7,000 267 266 0
2022-06-27 10:54:22 GMT 53.189400 -1.909265 7,000 263 278 0
2022-06-27 10:54:19 GMT 53.190239 -1.888889 7,000 250 279 -60
2022-06-27 10:54:13 GMT 53.190239 -1.888889 7,000 250 279 -60
2022-06-27 10:54:12 GMT 53.190239 -1.888889 7,025 245 251 0
2022-06-27 10:54:09 GMT 53.190884 -1.884028 7,000 232 263 0
2022-06-27 10:54:07 GMT 53.191586 -1.880326 7,000 229 248 0
2022-06-27 10:54:05 GMT 53.192268 -1.877917 7,000 220 262 0
2022-06-27 10:54:01 GMT 53.194695 -1.870076 7,000 216 249 0
2022-06-27 10:53:56 GMT 53.208084 -1.849063 7,000 195 276 0
2022-06-27 10:53:45 GMT 53.208084 -1.849063 7,000 188 271 0
2022-06-27 10:53:44 GMT 53.208084 -1.849063 7,000 188 271 0
2022-06-27 10:53:37 GMT 53.217190 -1.843431 7,000 182 268 0
2022-06-27 10:53:36 GMT 53.217190 -1.843431 7,000 173 266 60
2022-06-27 10:53:29 GMT 53.226768 -1.841090 7,025 166 267 60
2022-06-27 10:53:28 GMT 53.226768 -1.841090 7,025 156 270 60
2022-06-27 10:53:21 GMT 53.235176 -1.842721 7,025 152 283 0
2022-06-27 10:53:13 GMT 53.243752 -1.849150 7,000 138 293 0
2022-06-27 10:53:12 GMT 53.252808 -1.861053 7,000 130 304 0
2022-06-27 10:53:04 GMT 53.252808 -1.861053 7,000 130 304 0
2022-06-27 10:53:03 GMT 53.252808 -1.861053 7,000 130 297 0
2022-06-27 10:53:01 GMT 53.257614 -1.870849 7,000 128 289 60
2022-06-27 10:52:57 GMT 53.257614 -1.870849 7,000 128 289 60
2022-06-27 10:52:53 GMT 53.260666 -1.877313 7,000 129 291 60
2022-06-27 10:52:48 GMT 53.264896 -1.885336 7,000 128 298 0
2022-06-27 10:52:46 GMT 53.266495 -1.888989 7,000 128 291 0
2022-06-27 10:52:39 GMT 53.273216 -1.903678 7,000 127 311 -60
2022-06-27 10:52:37 GMT 53.273273 -1.903777 6,975 129 316 -60
2022-06-27 10:52:34 GMT 53.276054 -1.908235 6,975 127 336 -60
2022-06-27 10:52:32 GMT 53.277130 -1.910541 6,975 127 293 -120
2022-06-27 10:52:28 GMT 53.280647 -1.918150 7,000 126 284 -60
2022-06-27 10:52:25 GMT 53.282822 -1.923666 7,000 127 281 0
2022-06-27 10:52:22 GMT 53.285767 -1.930066 7,000 125 291 0
2022-06-27 10:52:20 GMT 53.288364 -1.934666 7,000 123 276 0
2022-06-27 10:52:17 GMT 53.292236 -1.943563 7,000 111 287 0
2022-06-27 10:52:12 GMT 53.292236 -1.943563 7,025 111 287 0
2022-06-27 10:52:07 GMT 53.295563 -1.951654 7,025 108 284 0
2022-06-27 10:51:56 GMT 53.303387 -1.973373 7,000 95 301 -60
2022-06-27 10:51:55 GMT 53.303387 -1.973373 7,000 91 291 0
2022-06-27 10:51:52 GMT 53.304340 -1.979002 7,000 86 284 0
2022-06-27 10:51:44 GMT 53.304974 -1.999505 7,025 62 270 0
2022-06-27 10:51:40 GMT 53.304379 -2.005831 7,025 351 205 0
2022-06-27 10:51:37 GMT 53.303497 -2.011172 7,025 347 213 0
2022-06-27 10:51:35 GMT 53.291237 -2.039015 7,025 305 320 -60
2022-06-27 10:51:20 GMT 53.291237 -2.039015 7,000 305 320 -60
2022-06-27 10:50:07 GMT 53.216454 -1.983120 7,000 305 320 -60
2022-06-27 10:50:05 GMT 53.215378 -1.979645 7,000 309 293 -60
2022-06-27 10:50:01 GMT 53.211674 -1.974081 7,000 306 295 -60
2022-06-27 10:49:58 GMT 53.208935 -1.966452 7,000 306 300 -60
2022-06-27 10:49:54 GMT 53.206268 -1.960450 7,025 307 291 60
2022-06-27 10:49:53 GMT 53.206268 -1.960450 7,025 308 276 60
2022-06-27 10:49:48 GMT 53.202332 -1.954152 7,025 298 302 0
2022-06-27 10:49:45 GMT 53.200378 -1.947754 7,025 289 352 0
2022-06-27 10:49:42 GMT 53.198441 -1.942554 7,025 288 305 0
2022-06-27 10:49:39 GMT 53.193047 -1.931740 7,025 280 274 0
2022-06-27 10:49:35 GMT 53.190517 -1.918395 7,000 272 270 60
2022-06-27 10:49:29 GMT 53.190517 -1.918395 7,000 272 270 60
2022-06-27 10:49:21 GMT 53.188591 -1.888547 7,000 261 281 0
2022-06-27 10:49:17 GMT 53.188591 -1.888507 7,000 255 281 60
2022-06-27 10:49:15 GMT 53.188595 -1.888475 7,025 242 267 0
2022-06-27 10:49:13 GMT 53.188595 -1.888475 7,000 242 267 0
2022-06-27 10:49:08 GMT 53.189854 -1.878893 7,000 237 263 0
2022-06-27 10:49:04 GMT 53.191723 -1.871043 7,000 232 269 0
2022-06-27 10:49:02 GMT 53.192516 -1.868442 7,000 229 271 0
2022-06-27 10:48:59 GMT 53.194130 -1.863722 7,000 222 278 0
2022-06-27 10:48:51 GMT 53.201042 -1.850711 7,000 204 388 0
2022-06-27 10:48:48 GMT 53.203110 -1.847335 7,000 200 253 0
2022-06-27 10:48:46 GMT 53.204891 -1.845405 7,000 193 253 0
2022-06-27 10:48:43 GMT 53.208481 -1.842520 7,000 189 255 0
2022-06-27 10:48:36 GMT 53.223240 -1.835619 7,000 175 260 0
2022-06-27 10:48:32 GMT 53.223251 -1.835615 7,000 136 487 0
2022-06-27 10:48:28 GMT 53.223270 -1.835614 7,025 134 353 0
2022-06-27 10:48:21 GMT 53.231590 -1.835213 7,025 131 305 0
2022-06-27 10:48:18 GMT 53.235214 -1.835798 7,025 129 288 0
2022-06-27 10:48:13 GMT 53.240738 -1.842020 7,025 128 266 0
2022-06-27 10:47:37 GMT 53.306644 -1.979933 7,000 122 266 0
2022-06-27 10:47:14 GMT 53.306660 -1.979968 7,025 111 268 0
2022-06-27 10:46:59 GMT 53.306675 -1.980017 7,025 97 282 0
2022-06-27 10:46:53 GMT 53.306683 -1.980041 7,000 91 273 0
2022-06-27 10:46:45 GMT 53.306683 -1.980068 7,025 80 295 0
2022-06-27 10:46:43 GMT 53.306225 -2.006660 7,000 20 240 0
2022-06-27 10:46:33 GMT 53.306225 -2.006660 7,000 20 240 0
2022-06-27 10:46:29 GMT 53.304619 -2.015306 7,000 5 227 0
2022-06-27 10:46:24 GMT 53.301838 -2.023885 7,000 345 231 0
2022-06-27 10:46:03 GMT 53.281219 -2.050378 7,000 328 258 0
2022-06-27 10:45:34 GMT 53.235065 -2.023992 7,000 307 289 0
2022-06-27 10:45:22 GMT 53.221394 -1.994296 7,000 307 303 -60
2022-06-27 10:45:05 GMT 53.221394 -1.994296 7,000 307 303 -60
2022-06-27 10:45:01 GMT 53.216957 -1.984668 7,000 305 306 0
2022-06-27 10:44:59 GMT 53.216927 -1.984609 6,975 306 287 -60
2022-06-27 10:44:56 GMT 53.214451 -1.979500 7,000 304 307 -60
2022-06-27 10:44:51 GMT 53.210831 -1.971610 7,000 304 295 -60
2022-06-27 10:44:49 GMT 53.209743 -1.968676 7,000 305 299 0
2022-06-27 10:44:45 GMT 53.207108 -1.962091 7,000 304 337 -60
2022-06-27 10:44:39 GMT 53.202183 -1.949502 7,000 306 281 0
2022-06-27 10:44:38 GMT 53.197872 -1.940789 7,025 293 277 60
2022-06-27 10:44:33 GMT 53.197872 -1.940789 7,025 293 277 60
2022-06-27 10:44:30 GMT 53.191471 -1.923670 7,025 278 286 60
2022-06-27 10:44:26 GMT 53.191471 -1.923670 7,025 278 286 60
2022-06-27 10:44:13 GMT 53.188457 -1.902327 7,000 263 286 0
2022-06-27 10:44:03 GMT 53.189678 -1.881872 7,000 244 270 0
2022-06-27 10:43:54 GMT 53.192513 -1.868696 7,000 225 266 0
2022-06-27 10:43:47 GMT 53.197456 -1.856476 7,000 218 279 0
2022-06-27 10:43:46 GMT 53.197456 -1.856476 7,000 214 273 60
2022-06-27 10:43:37 GMT 53.207108 -1.842818 7,000 203 274 -60
2022-06-27 10:43:36 GMT 53.209923 -1.840098 7,000 194 283 -60
2022-06-27 10:43:31 GMT 53.213932 -1.837687 7,000 186 272 0
2022-06-27 10:43:29 GMT 53.215981 -1.836727 7,000 178 274 0
2022-06-27 10:43:20 GMT 53.225574 -1.834290 7,025 172 287 60
2022-06-27 10:43:19 GMT 53.225574 -1.834290 7,025 168 283 60
2022-06-27 10:43:17 GMT 53.227467 -1.834492 7,025 165 276 60
2022-06-27 10:43:13 GMT 53.231964 -1.834925 7,025 158 296 60
2022-06-27 10:43:07 GMT 53.239758 -1.838359 7,025 153 304 60
2022-06-27 10:43:05 GMT 53.242157 -1.838901 7,025 145 313 0
2022-06-27 10:43:03 GMT 53.244289 -1.840821 7,000 141 295 0
2022-06-27 10:43:01 GMT 53.245712 -1.843147 7,000 142 301 0
2022-06-27 10:42:58 GMT 53.249573 -1.846759 7,000 134 297 0
2022-06-27 10:42:56 GMT 53.251270 -1.849187 7,000 133 289 0
2022-06-27 10:42:54 GMT 53.253223 -1.851918 7,000 130 283 -60
2022-06-27 10:42:52 GMT 53.254604 -1.854190 7,000 129 283 0
2022-06-27 10:42:49 GMT 53.257153 -1.858209 7,000 127 290 0
2022-06-27 10:42:42 GMT 53.263203 -1.870714 7,000 127 293 0
2022-06-27 10:42:41 GMT 53.263203 -1.870714 7,000 127 285 0
2022-06-27 10:42:36 GMT 53.267200 -1.879548 7,000 126 280 0
2022-06-27 10:42:30 GMT 53.271866 -1.889248 7,000 126 279 0
2022-06-27 10:42:21 GMT 53.279324 -1.905815 7,000 126 290 0
2022-06-27 10:42:15 GMT 53.282944 -1.914338 7,000 124 272 0
2022-06-27 10:42:09 GMT 53.287239 -1.924480 7,000 121 271 0
2022-06-27 10:42:06 GMT 53.289429 -1.928790 7,000 118 268 0
2022-06-27 10:41:56 GMT 53.297626 -1.946852 7,025 107 277 0
2022-06-27 10:41:55 GMT 53.297626 -1.946852 7,025 105 269 0
2022-06-27 10:41:44 GMT 53.304195 -1.966180 7,025 95 273 0
2022-06-27 10:41:37 GMT 53.306931 -1.980014 7,000 82 277 0
2022-06-27 10:41:35 GMT 53.306904 -1.983436 7,000 67 277 0
2022-06-27 10:41:27 GMT 53.306801 -2.003221 7,000 59 277 0
2022-06-27 10:41:26 GMT 53.306210 -2.006041 7,025 32 254 0
2022-06-27 10:41:24 GMT 53.306210 -2.006041 7,000 32 254 0
2022-06-27 10:41:18 GMT 53.292343 -2.040197 7,000 350 252 0
2022-06-27 10:41:05 GMT 53.292343 -2.040197 7,000 350 252 0
2022-06-27 10:41:04 GMT 53.292343 -2.040197 7,000 350 247 0
2022-06-27 10:40:55 GMT 53.282894 -2.048106 7,000 330 254 0
2022-06-27 10:40:39 GMT 53.262096 -2.051637 7,025 318 263 0
2022-06-27 10:40:15 GMT 53.236343 -2.027944 7,000 306 285 0
2022-06-27 10:40:12 GMT 53.233643 -2.021966 7,000 307 274 0
2022-06-27 10:39:48 GMT 53.215851 -1.982303 6,975 305 319 -60
2022-06-27 10:39:47 GMT 53.215851 -1.982303 6,975 307 318 -120
2022-06-27 10:39:44 GMT 53.213093 -1.976340 6,975 304 293 -120
2022-06-27 10:39:43 GMT 53.213093 -1.976340 6,975 304 283 -120
2022-06-27 10:39:39 GMT 53.209976 -1.969477 6,975 302 298 -120
2022-06-27 10:39:37 GMT 53.208908 -1.965485 6,975 306 285 -120
2022-06-27 10:39:32 GMT 53.203781 -1.955919 7,000 308 300 -60
2022-06-27 10:39:30 GMT 53.203743 -1.955782 7,025 302 299 60
2022-06-27 10:39:27 GMT 53.199818 -1.944437 7,025 295 282 60
2022-06-27 10:39:24 GMT 53.199818 -1.944437 7,025 295 282 60
2022-06-27 10:39:21 GMT 53.197556 -1.939527 7,025 294 277 60
2022-06-27 10:39:19 GMT 53.195858 -1.936562 7,025 288 272 0
2022-06-27 10:39:17 GMT 53.191422 -1.920098 7,025 273 264 0
2022-06-27 10:39:10 GMT 53.191422 -1.920098 7,025 273 264 0
2022-06-27 10:39:03 GMT 53.189205 -1.905402 7,000 260 287 0
2022-06-27 10:38:59 GMT 53.188900 -1.899786 7,000 253 276 0
2022-06-27 10:38:51 GMT 53.190453 -1.881689 7,000 243 279 0
2022-06-27 10:38:50 GMT 53.190453 -1.881689 7,000 241 260 0
2022-06-27 10:38:43 GMT 53.195782 -1.861382 7,000 220 261 0
2022-06-27 10:38:39 GMT 53.195782 -1.861382 7,000 220 261 0
2022-06-27 10:38:35 GMT 53.198486 -1.856488 7,000 216 280 0
2022-06-27 10:38:33 GMT 53.199757 -1.854303 7,000 209 307 -60
2022-06-27 10:38:29 GMT 53.203350 -1.848861 7,000 205 264 -60
2022-06-27 10:38:25 GMT 53.207623 -1.844014 7,000 200 261 -60
2022-06-27 10:38:23 GMT 53.209656 -1.842089 7,000 191 270 -60
2022-06-27 10:38:21 GMT 53.211720 -1.840430 7,000 188 273 -60
2022-06-27 10:38:17 GMT 53.218311 -1.837121 7,000 181 289 0
2022-06-27 10:38:14 GMT 53.218422 -1.837095 7,000 170 348 0
2022-06-27 10:38:12 GMT 53.220345 -1.836713 7,025 168 295 120
2022-06-27 10:38:04 GMT 53.230858 -1.835893 7,025 161 282 60
2022-06-27 10:38:02 GMT 53.233303 -1.835775 7,025 149 285 60
2022-06-27 10:37:58 GMT 53.238689 -1.838789 7,025 146 287 60
2022-06-27 10:37:54 GMT 53.248268 -1.846819 7,000 141 279 0
2022-06-27 10:37:50 GMT 53.248280 -1.846829 7,000 134 295 0
2022-06-27 10:37:48 GMT 53.248287 -1.846842 7,000 133 287 0
2022-06-27 10:37:41 GMT 53.255489 -1.858096 7,000 128 300 0
2022-06-27 10:37:40 GMT 53.255489 -1.858096 7,000 129 290 0
2022-06-27 10:37:37 GMT 53.257843 -1.862552 7,000 128 308 0
2022-06-27 10:37:32 GMT 53.262295 -1.871630 7,000 127 395 0
2022-06-27 10:37:30 GMT 53.263496 -1.874124 7,000 127 307 0
2022-06-27 10:37:19 GMT 53.272606 -1.892471 7,000 126 291 0
2022-06-27 10:37:17 GMT 53.274048 -1.895711 7,000 126 290 0
2022-06-27 10:37:14 GMT 53.277252 -1.903083 7,000 115 310 0
2022-06-27 10:37:05 GMT 53.291035 -1.934806 7,000 112 263 0
2022-06-27 10:36:57 GMT 53.291046 -1.934833 7,000 108 261 0
2022-06-27 10:36:54 GMT 53.291054 -1.934850 7,000 102 252 0
2022-06-27 10:36:48 GMT 53.295609 -1.944381 7,025 79 235 0
2022-06-27 10:36:24 GMT 53.306194 -2.007802 7,025 24 221 0
2022-06-27 10:36:15 GMT 53.306187 -2.007837 7,000 354 231 0
2022-06-27 10:36:12 GMT 53.305138 -2.013464 7,000 351 222 0
2022-06-27 10:36:07 GMT 53.302151 -2.022751 7,000 347 226 0
2022-06-27 10:35:48 GMT 53.283035 -2.048974 7,000 324 292 0
2022-06-27 10:35:14 GMT 53.242085 -2.038328 7,000 307 305 0
2022-06-27 10:34:52 GMT 53.218334 -1.989815 7,000 306 268 0
2022-06-27 10:34:46 GMT 53.218319 -1.989787 7,000 305 271 0
2022-06-27 10:34:33 GMT 53.201935 -1.950575 6,975 304 277 -120
2022-06-27 10:34:26 GMT 53.201923 -1.950551 7,025 304 273 0
2022-06-27 10:34:19 GMT 53.199776 -1.944443 7,025 299 287 60
2022-06-27 10:34:16 GMT 53.199776 -1.944443 7,025 299 287 60
2022-06-27 10:34:14 GMT 53.198601 -1.941848 7,025 296 281 60
2022-06-27 10:34:12 GMT 53.195030 -1.934203 7,025 282 283 60
2022-06-27 10:34:09 GMT 53.195030 -1.934203 7,025 282 283 60
2022-06-27 10:34:02 GMT 53.191147 -1.918041 7,000 275 255 0
2022-06-27 10:33:57 GMT 53.189739 -1.912040 7,000 268 273 0
2022-06-27 10:33:54 GMT 53.189281 -1.906932 7,000 264 273 0
2022-06-27 10:33:47 GMT 53.189381 -1.889858 7,000 249 267 0
2022-06-27 10:33:44 GMT 53.189724 -1.886675 7,000 240 277 0
2022-06-27 10:33:42 GMT 53.190517 -1.882947 7,000 238 259 0
2022-06-27 10:33:40 GMT 53.191090 -1.880364 7,000 235 262 0
2022-06-27 10:33:30 GMT 53.196804 -1.860839 7,000 214 257 -60
2022-06-27 10:33:29 GMT 53.196804 -1.860839 7,000 214 257 -60
2022-06-27 10:33:22 GMT 53.203014 -1.849517 7,000 208 255 -60
2022-06-27 10:33:21 GMT 53.203014 -1.849517 7,000 206 263 -60
2022-06-27 10:33:19 GMT 53.204708 -1.847309 7,000 199 247 0
2022-06-27 10:33:17 GMT 53.206219 -1.845698 7,000 190 263 0
2022-06-27 10:33:07 GMT 53.217327 -1.837954 7,000 182 274 0
2022-06-27 10:33:06 GMT 53.217327 -1.837954 7,000 174 279 60
2022-06-27 10:33:03 GMT 53.221020 -1.835572 7,025 168 265 60
2022-06-27 10:32:58 GMT 53.225883 -1.835647 7,025 163 282 120
2022-06-27 10:32:51 GMT 53.236160 -1.837112 7,025 150 324 60
2022-06-27 10:32:42 GMT 53.246330 -1.844499 7,000 135 443 0
2022-06-27 10:32:39 GMT 53.247997 -1.846954 7,000 134 285 0
2022-06-27 10:32:35 GMT 53.254436 -1.855025 7,000 127 291 0
2022-06-27 10:32:25 GMT 53.268055 -1.881979 6,975 127 292 -60
2022-06-27 10:32:19 GMT 53.268066 -1.881999 7,000 127 315 0
2022-06-27 10:32:15 GMT 53.268074 -1.882020 7,000 127 345 0
2022-06-27 10:32:10 GMT 53.272064 -1.890554 6,975 126 300 -120
2022-06-27 10:32:06 GMT 53.274872 -1.899184 7,000 128 293 -60
2022-06-27 10:32:04 GMT 53.276321 -1.901930 7,000 129 293 -60
2022-06-27 10:32:01 GMT 53.279621 -1.906703 7,000 127 285 -60
2022-06-27 10:31:53 GMT 53.288322 -1.926766 7,000 129 280 0
2022-06-27 10:31:49 GMT 53.289524 -1.930177 7,000 121 287 0
2022-06-27 10:31:47 GMT 53.289524 -1.930177 7,025 121 287 0
2022-06-27 10:31:44 GMT 53.292034 -1.934374 7,025 119 279 0
2022-06-27 10:31:40 GMT 53.295376 -1.940576 7,025 110 276 0
2022-06-27 10:31:38 GMT 53.304016 -1.962504 7,025 94 291 60
2022-06-27 10:31:27 GMT 53.304016 -1.962504 7,025 94 291 60
2022-06-27 10:31:19 GMT 53.307690 -1.981168 7,000 85 289 0
2022-06-27 10:31:11 GMT 53.306767 -2.007819 7,025 19 239 0
2022-06-27 10:31:06 GMT 53.306141 -2.011573 7,000 354 211 0
2022-06-27 10:31:02 GMT 53.305393 -2.014271 7,000 351 214 0
2022-06-27 10:30:55 GMT 53.290585 -2.042719 7,000 334 248 0
2022-06-27 10:30:44 GMT 53.290585 -2.042719 7,000 334 248 0
2022-06-27 10:30:07 GMT 53.245983 -2.041142 7,000 310 269 0
2022-06-27 10:29:37 GMT 53.222206 -1.994647 7,000 308 308 0
2022-06-27 10:29:35 GMT 53.217590 -1.986148 6,975 302 329 -60
2022-06-27 10:29:32 GMT 53.217590 -1.986148 6,975 302 329 -60
2022-06-27 10:29:30 GMT 53.215500 -1.980528 6,975 302 291 -60
2022-06-27 10:29:28 GMT 53.213028 -1.975269 6,975 303 284 -60
2022-06-27 10:29:25 GMT 53.213028 -1.975269 6,975 303 284 -60
2022-06-27 10:29:23 GMT 53.211983 -1.971876 7,000 306 283 -60
2022-06-27 10:29:20 GMT 53.209770 -1.966115 7,000 304 303 -60
2022-06-27 10:29:19 GMT 53.209770 -1.966115 7,000 307 302 -60
2022-06-27 10:29:14 GMT 53.204617 -1.955059 7,000 306 297 60
2022-06-27 10:29:12 GMT 53.200546 -1.946639 7,025 299 288 60
2022-06-27 10:29:07 GMT 53.197609 -1.938872 7,025 296 296 60
2022-06-27 10:29:03 GMT 53.197609 -1.938872 7,025 296 296 60
2022-06-27 10:29:01 GMT 53.195744 -1.935458 7,025 289 314 60
2022-06-27 10:29:00 GMT 53.195744 -1.935458 7,025 286 299 60
2022-06-27 10:28:52 GMT 53.190918 -1.918285 7,000 264 451 0
2022-06-27 10:28:51 GMT 53.190918 -1.918285 7,000 263 339 0
2022-06-27 10:28:48 GMT 53.190266 -1.911600 7,000 261 262 0
2022-06-27 10:28:46 GMT 53.190044 -1.906821 7,000 256 253 0
2022-06-27 10:28:44 GMT 53.190121 -1.902444 7,000 247 250 0
2022-06-27 10:28:35 GMT 53.195385 -1.864363 7,000 240 252 0
2022-06-27 10:28:29 GMT 53.195389 -1.864339 7,000 224 267 0
2022-06-27 10:28:22 GMT 53.197304 -1.859674 7,000 214 238 0
2022-06-27 10:28:19 GMT 53.197304 -1.859674 7,000 214 238 0
2022-06-27 10:28:12 GMT 53.203510 -1.850009 7,000 202 253 0
2022-06-27 10:28:11 GMT 53.203510 -1.850009 7,000 195 264 0
2022-06-27 10:28:03 GMT 53.213551 -1.841445 7,000 183 255 0
2022-06-27 10:28:00 GMT 53.213562 -1.841440 7,000 175 267 0
2022-06-27 10:27:51 GMT 53.223743 -1.836689 7,025 165 276 60
2022-06-27 10:27:45 GMT 53.232681 -1.837000 7,025 155 286 120
2022-06-27 10:27:44 GMT 53.232681 -1.837000 7,025 153 269 0
2022-06-27 10:27:40 GMT 53.236889 -1.838610 7,025 141 290 0
2022-06-27 10:27:33 GMT 53.245537 -1.846539 7,000 136 290 0
2022-06-27 10:27:32 GMT 53.245537 -1.846539 7,000 134 285 0
2022-06-27 10:27:25 GMT 53.253551 -1.855323 6,975 131 296 -60
2022-06-27 10:27:24 GMT 53.253551 -1.855323 6,975 129 293 -60
2022-06-27 10:27:16 GMT 53.260708 -1.870715 7,000 129 311 0
2022-06-27 10:27:15 GMT 53.260708 -1.870715 7,000 130 307 0
2022-06-27 10:27:07 GMT 53.267551 -1.884131 7,000 130 304 0
2022-06-27 10:27:04 GMT 53.270199 -1.888672 7,000 128 305 0
2022-06-27 10:27:02 GMT 53.271320 -1.891843 7,000 129 309 -60
2022-06-27 10:26:59 GMT 53.274040 -1.897871 7,000 129 303 -60
2022-06-27 10:26:50 GMT 53.282688 -1.914123 7,000 127 323 -60
2022-06-27 10:26:49 GMT 53.282688 -1.914123 7,000 125 306 -60
2022-06-27 10:26:47 GMT 53.283985 -1.917040 7,000 125 299 0
2022-06-27 10:26:45 GMT 53.285473 -1.920141 7,000 124 286 0
2022-06-27 10:26:38 GMT 53.291676 -1.934041 7,000 123 286 0
2022-06-27 10:26:37 GMT 53.297123 -1.947813 7,025 107 291 0
2022-06-27 10:26:30 GMT 53.297123 -1.947813 7,025 107 291 0
2022-06-27 10:26:29 GMT 53.297123 -1.947813 7,025 100 279 0
2022-06-27 10:26:19 GMT 53.303787 -1.965494 7,025 92 286 0
2022-06-27 10:26:15 GMT 53.305893 -1.973279 7,025 74 267 0
2022-06-27 10:26:10 GMT 53.306408 -1.997982 7,025 23 229 0
2022-06-27 10:26:04 GMT 53.304211 -2.016040 7,000 12 239 0
2022-06-27 10:25:56 GMT 53.304211 -2.016040 7,000 12 239 0
2022-06-27 10:25:55 GMT 53.304211 -2.016040 7,000 7 235 0
2022-06-27 10:25:42 GMT 53.294849 -2.036556 7,025 354 251 0
2022-06-27 10:25:02 GMT 53.246635 -2.043483 6,975 318 281 0
2022-06-27 10:25:00 GMT 53.244534 -2.041486 6,975 309 275 0
2022-06-27 10:24:55 GMT 53.239750 -2.035112 6,975 306 283 0
2022-06-27 10:24:52 GMT 53.237038 -2.029964 7,000 306 281 0
2022-06-27 10:24:50 GMT 53.235889 -2.027134 7,000 306 287 0
2022-06-27 10:24:26 GMT 53.218250 -1.986991 7,000 306 351 -60
2022-06-27 10:24:24 GMT 53.216621 -1.983327 7,000 306 291 -60
2022-06-27 10:24:22 GMT 53.215176 -1.980183 7,000 304 290 -60
2022-06-27 10:24:19 GMT 53.212162 -1.973672 7,000 303 297 -120
2022-06-27 10:24:18 GMT 53.212162 -1.973672 7,000 301 283 -60
2022-06-27 10:24:15 GMT 53.209286 -1.966628 7,000 303 289 -60
2022-06-27 10:24:13 GMT 53.209255 -1.966521 7,000 302 296 -60
2022-06-27 10:24:11 GMT 53.208305 -1.963058 7,000 305 306 60
2022-06-27 10:24:07 GMT 53.206036 -1.956683 7,025 304 278 0
2022-06-27 10:24:03 GMT 53.202698 -1.949922 7,025 287 385 0
2022-06-27 10:24:01 GMT 53.201450 -1.946694 7,025 286 313 0
2022-06-27 10:23:57 GMT 53.197811 -1.939256 7,025 284 272 0
2022-06-27 10:23:56 GMT 53.197811 -1.939256 7,025 282 253 0
2022-06-27 10:23:47 GMT 53.192646 -1.923356 7,000 272 268 0
2022-06-27 10:23:38 GMT 53.190636 -1.882024 7,000 262 258 0
2022-06-27 10:23:32 GMT 53.190636 -1.881997 7,000 254 273 0
2022-06-27 10:23:27 GMT 53.190639 -1.881968 7,000 247 263 0
2022-06-27 10:23:25 GMT 53.190639 -1.881952 7,000 238 251 0
2022-06-27 10:23:22 GMT 53.192417 -1.873551 7,000 222 263 0
2022-06-27 10:23:17 GMT 53.193741 -1.869131 7,000 219 260 0
2022-06-27 10:23:14 GMT 53.195232 -1.865038 7,000 189 375 0
2022-06-27 10:23:05 GMT 53.202263 -1.851519 7,000 181 318 0
2022-06-27 10:22:56 GMT 53.213383 -1.842780 7,000 172 258 0
2022-06-27 10:22:55 GMT 53.250839 -1.850733 7,000 155 272 0
2022-06-27 10:22:41 GMT 53.250839 -1.850733 7,050 155 272 0
2022-06-27 10:22:31 GMT 53.250866 -1.850747 7,025 145 274 60
2022-06-27 10:22:25 GMT 53.250866 -1.850747 7,000 138 294 -60
2022-06-27 10:22:21 GMT 53.250874 -1.850758 7,000 134 293 0
2022-06-27 10:22:19 GMT 53.250965 -1.850922 7,000 130 286 0
2022-06-27 10:22:14 GMT 53.256180 -1.860364 7,000 128 286 0
2022-06-27 10:22:07 GMT 53.261772 -1.870018 7,000 128 284 0
2022-06-27 10:22:06 GMT 53.261772 -1.870018 7,000 127 282 0
2022-06-27 10:21:58 GMT 53.274857 -1.899517 7,000 126 280 -60
2022-06-27 10:21:49 GMT 53.274857 -1.899517 6,975 126 280 -60
2022-06-27 10:21:43 GMT 53.280544 -1.909727 6,975 127 288 0
2022-06-27 10:21:42 GMT 53.280544 -1.909727 6,975 118 374 0
2022-06-27 10:21:37 GMT 53.284184 -1.918194 7,000 117 301 0
2022-06-27 10:21:30 GMT 53.290524 -1.936135 7,000 116 279 0
2022-06-27 10:21:27 GMT 53.290531 -1.936152 7,025 106 272 0
2022-06-27 10:21:21 GMT 53.307056 -1.991508 7,025 88 278 0
2022-06-27 10:21:09 GMT 53.307056 -1.991508 7,000 88 278 0
2022-06-27 10:21:00 GMT 53.307060 -1.991553 7,000 66 279 0
2022-06-27 10:20:57 GMT 53.307056 -1.991591 7,000 54 301 0
2022-06-27 10:20:46 GMT 53.304035 -2.017037 7,000 43 290 0
2022-06-27 10:20:43 GMT 53.303043 -2.019899 7,000 28 266 0
2022-06-27 10:20:30 GMT 53.291458 -2.041963 7,000 8 276 0
2022-06-27 10:20:24 GMT 53.280361 -2.051524 7,050 330 254 0
2022-06-27 10:20:20 GMT 53.277481 -2.052185 7,025 326 258 0
2022-06-27 10:20:17 GMT 53.277481 -2.052185 7,025 326 258 0
2022-06-27 10:20:08 GMT 53.266262 -2.053068 7,025 319 269 0
2022-06-27 10:19:59 GMT 53.254349 -2.049340 7,025 313 272 0
2022-06-27 10:19:41 GMT 53.236515 -2.026799 7,000 308 279 0
2022-06-27 10:19:21 GMT 53.215862 -1.982700 7,000 305 307 -60
2022-06-27 10:19:14 GMT 53.215862 -1.982700 7,000 305 307 -60
2022-06-27 10:19:11 GMT 53.213379 -1.976849 7,000 306 311 -60
2022-06-27 10:19:07 GMT 53.210258 -1.970796 7,000 300 303 -60
2022-06-27 10:19:03 GMT 53.205669 -1.958391 7,000 302 320 0
2022-06-27 10:19:00 GMT 53.205669 -1.958391 7,000 302 320 0
2022-06-27 10:18:57 GMT 53.203217 -1.951941 7,025 305 306 60
2022-06-27 10:18:54 GMT 53.202370 -1.948753 7,025 303 304 60
2022-06-27 10:18:51 GMT 53.200142 -1.943224 7,025 298 304 60
2022-06-27 10:18:48 GMT 53.197399 -1.936477 7,025 294 302 60
2022-06-27 10:18:47 GMT 53.197399 -1.936477 7,025 295 276 60
2022-06-27 10:18:43 GMT 53.194199 -1.927915 7,025 288 280 0
2022-06-27 10:18:42 GMT 53.194199 -1.927915 7,000 278 270 0
2022-06-27 10:18:34 GMT 53.190128 -1.911443 7,000 271 271 0
2022-06-27 10:18:33 GMT 53.190128 -1.911443 7,000 266 262 0
2022-06-27 10:18:31 GMT 53.189651 -1.908470 7,000 261 259 0
2022-06-27 10:18:29 GMT 53.189445 -1.905785 7,000 251 269 0
2022-06-27 10:18:20 GMT 53.190536 -1.884938 7,000 244 274 0
2022-06-27 10:18:15 GMT 53.191895 -1.877926 7,025 231 255 0
2022-06-27 10:18:12 GMT 53.193073 -1.873423 7,000 219 261 0
2022-06-27 10:18:03 GMT 53.199509 -1.857016 7,000 211 265 -60
2022-06-27 10:18:02 GMT 53.199509 -1.857016 7,000 208 250 0
2022-06-27 10:17:54 GMT 53.207561 -1.846324 7,000 195 280 -60
2022-06-27 10:17:53 GMT 53.207561 -1.846324 7,000 193 261 0
2022-06-27 10:17:44 GMT 53.218243 -1.839302 7,000 179 289 -60
2022-06-27 10:17:43 GMT 53.218243 -1.839302 7,000 178 271 60
2022-06-27 10:17:35 GMT 53.228539 -1.838186 7,025 162 272 60
2022-06-27 10:17:27 GMT 53.238029 -1.840084 7,025 153 285 60
2022-06-27 10:17:26 GMT 53.238029 -1.840084 7,025 149 278 60
2022-06-27 10:17:24 GMT 53.239784 -1.841529 7,025 143 287 60
2022-06-27 10:17:17 GMT 53.248608 -1.849377 7,000 137 307 0
2022-06-27 10:17:16 GMT 53.248608 -1.849377 7,000 134 293 0
2022-06-27 10:17:14 GMT 53.250164 -1.851834 7,000 132 290 0
2022-06-27 10:17:12 GMT 53.251801 -1.854059 7,000 129 301 0
2022-06-27 10:17:06 GMT 53.257179 -1.863274 7,000 128 286 0
2022-06-27 10:17:03 GMT 53.265709 -1.881124 7,000 128 282 0
2022-06-27 10:16:55 GMT 53.265709 -1.881124 7,000 128 282 0
2022-06-27 10:16:44 GMT 53.275448 -1.901482 7,000 129 306 -60
2022-06-27 10:16:43 GMT 53.275448 -1.901482 7,000 128 294 -60
2022-06-27 10:16:41 GMT 53.276821 -1.904125 7,000 127 290 -120
2022-06-27 10:16:37 GMT 53.279316 -1.909940 7,000 127 277 -60
2022-06-27 10:16:33 GMT 53.282578 -1.916409 6,975 125 282 0
2022-06-27 10:16:22 GMT 53.291706 -1.936446 7,000 122 314 0
2022-06-27 10:16:21 GMT 53.291706 -1.936446 7,000 122 271 0
2022-06-27 10:16:16 GMT 53.295284 -1.944484 7,025 115 279 0
2022-06-27 10:16:13 GMT 53.297089 -1.948500 7,025 104 285 0
2022-06-27 10:16:04 GMT 53.303658 -1.966125 7,025 97 288 60
2022-06-27 10:16:01 GMT 53.306194 -1.975057 7,025 89 290 0
2022-06-27 10:15:58 GMT 53.306194 -1.975397 7,000 79 308 0
2022-06-27 10:15:55 GMT 53.306057 -1.983562 7,000 74 295 -60
2022-06-27 10:15:45 GMT 53.305710 -2.006030 7,000 65 314 0
2022-06-27 10:15:44 GMT 53.305710 -2.006030 7,000 55 291 0
2022-06-27 10:15:40 GMT 53.303780 -2.014952 7,000 27 258 0
2022-06-27 10:15:35 GMT 53.300529 -2.025424 7,000 352 225 0
2022-06-27 10:15:32 GMT 53.297680 -2.031814 7,000 346 229 0
2022-06-27 10:15:31 GMT 53.297680 -2.031814 7,000 343 232 0
2022-06-27 10:15:23 GMT 53.290218 -2.041972 7,025 329 272 0
2022-06-27 10:14:59 GMT 53.261158 -2.050560 7,025 314 287 0
2022-06-27 10:14:23 GMT 53.227318 -2.006296 7,000 306 274 0
2022-06-27 10:14:16 GMT 53.221485 -1.995096 7,000 304 280 0
2022-06-27 10:14:13 GMT 53.218632 -1.989670 7,000 303 279 0
2022-06-27 10:14:04 GMT 53.205826 -1.957266 7,000 305 292 0
2022-06-27 10:13:59 GMT 53.205826 -1.957264 7,000 305 280 0
2022-06-27 10:13:53 GMT 53.205677 -1.956847 7,000 303 299 60
2022-06-27 10:13:51 GMT 53.203194 -1.950433 7,025 303 280 60
2022-06-27 10:13:49 GMT 53.203194 -1.950433 7,025 303 280 60
2022-06-27 10:13:42 GMT 53.197006 -1.937357 7,025 297 290 60
2022-06-27 10:13:41 GMT 53.197006 -1.937357 7,025 288 290 60
2022-06-27 10:13:38 GMT 53.195419 -1.931487 7,000 287 271 0
2022-06-27 10:13:33 GMT 53.191944 -1.922044 7,000 281 275 0
2022-06-27 10:13:32 GMT 53.191944 -1.922044 7,000 267 271 0
2022-06-27 10:13:23 GMT 53.190205 -1.901898 7,000 190 444 0
2022-06-27 10:13:22 GMT 53.190205 -1.901898 7,000 188 287 0
2022-06-27 10:13:14 GMT 53.193188 -1.887628 7,025 180 208 0
2022-06-27 10:12:46 GMT 53.264786 -1.885936 7,000 158 243 0
2022-06-27 10:12:25 GMT 53.264805 -1.885949 7,025 139 277 0
2022-06-27 10:12:10 GMT 53.264824 -1.885976 7,000 130 286 0
2022-06-27 10:12:01 GMT 53.264839 -1.886006 7,000 129 289 0
2022-06-27 10:11:56 GMT 53.264839 -1.886007 7,000 128 295 0
2022-06-27 10:11:52 GMT 53.264885 -1.886150 7,000 128 294 60
2022-06-27 10:11:50 GMT 53.275108 -1.907259 7,000 130 297 0
2022-06-27 10:11:39 GMT 53.275108 -1.907259 7,000 130 297 0
2022-06-27 10:11:37 GMT 53.276669 -1.909491 7,000 127 298 -60
2022-06-27 10:11:33 GMT 53.282326 -1.921807 7,000 124 297 0
2022-06-27 10:11:30 GMT 53.282326 -1.921807 7,000 124 297 0
2022-06-27 10:11:27 GMT 53.284161 -1.927012 7,000 116 358 0
2022-06-27 10:11:24 GMT 53.286953 -1.931348 7,000 114 303 0
2022-06-27 10:11:22 GMT 53.293213 -1.947576 7,000 108 273 0
2022-06-27 10:11:16 GMT 53.293213 -1.947576 7,025 108 273 0
2022-06-27 10:11:15 GMT 53.293213 -1.947576 7,025 104 269 0
2022-06-27 10:10:58 GMT 53.304565 -1.996471 7,000 63 412 0
2022-06-27 10:10:52 GMT 53.304565 -1.996472 7,000 57 340 0
2022-06-27 10:10:49 GMT 53.304543 -1.996727 7,025 53 272 0
2022-06-27 10:10:46 GMT 53.303905 -2.002854 7,000 47 271 0
2022-06-27 10:10:43 GMT 53.302296 -2.009350 7,000 28 254 0
2022-06-27 10:10:31 GMT 53.280422 -2.049831 7,000 4 258 0
2022-06-27 10:10:23 GMT 53.280403 -2.049853 7,000 356 266 0
2022-06-27 10:10:16 GMT 53.280384 -2.049861 7,025 343 271 0
2022-06-27 10:10:12 GMT 53.275627 -2.051819 7,000 339 268 0
2022-06-27 10:09:55 GMT 53.254387 -2.050136 7,000 315 285 0
2022-06-27 10:09:44 GMT 53.241425 -2.035506 6,975 309 331 0
2022-06-27 10:09:43 GMT 53.241425 -2.035506 6,975 308 300 0
2022-06-27 10:09:38 GMT 53.236115 -2.026690 7,000 308 281 0
2022-06-27 10:09:37 GMT 53.236115 -2.026690 7,000 307 280 0
2022-06-27 10:09:19 GMT 53.221596 -1.996283 7,000 306 300 0
2022-06-27 10:09:14 GMT 53.214752 -1.979857 7,000 309 301 0
2022-06-27 10:09:11 GMT 53.214741 -1.979831 7,000 306 315 0
2022-06-27 10:09:09 GMT 53.214714 -1.979778 7,000 306 310 -60
2022-06-27 10:09:06 GMT 53.212490 -1.975118 7,000 306 334 -120
2022-06-27 10:09:04 GMT 53.210888 -1.972441 7,000 304 322 -120
2022-06-27 10:09:02 GMT 53.209454 -1.969328 7,000 301 332 -60
2022-06-27 10:09:00 GMT 53.207916 -1.965355 7,000 301 340 0
2022-06-27 10:08:57 GMT 53.205582 -1.958989 7,000 302 303 0
2022-06-27 10:08:55 GMT 53.203991 -1.954921 7,000 303 313 60
2022-06-27 10:08:54 GMT 53.203014 -1.951368 7,000 297 351 0
2022-06-27 10:08:52 GMT 53.203014 -1.951368 7,025 297 351 0
2022-06-27 10:08:47 GMT 53.198242 -1.939477 7,025 294 304 60
2022-06-27 10:08:45 GMT 53.198174 -1.939292 7,025 295 274 60
2022-06-27 10:08:42 GMT 53.195648 -1.932819 7,025 291 271 60
2022-06-27 10:08:32 GMT 53.189117 -1.906240 7,000 266 272 60
2022-06-27 10:08:28 GMT 53.189117 -1.906240 7,000 266 272 60
2022-06-27 10:08:26 GMT 53.189114 -1.906104 7,025 260 286 60
2022-06-27 10:08:24 GMT 53.188999 -1.902368 7,025 255 272 0
2022-06-27 10:08:17 GMT 53.189945 -1.886473 7,000 239 282 0
2022-06-27 10:08:14 GMT 53.192905 -1.872685 7,000 195 391 0
2022-06-27 10:08:09 GMT 53.192905 -1.872685 7,000 195 391 0
2022-06-27 10:08:06 GMT 53.194473 -1.868343 7,000 193 317 0
2022-06-27 10:07:58 GMT 53.201885 -1.855023 7,000 186 280 0
2022-06-27 10:07:57 GMT 53.201885 -1.855023 7,000 185 253 0
2022-06-27 10:07:55 GMT 53.204124 -1.852995 7,000 182 242 0
2022-06-27 10:07:38 GMT 53.246227 -1.849348 7,025 154 275 60
2022-06-27 10:07:29 GMT 53.246227 -1.849348 7,025 154 275 60
2022-06-27 10:07:21 GMT 53.246246 -1.849362 7,000 144 292 0
2022-06-27 10:07:17 GMT 53.246265 -1.849382 7,000 136 283 -60
2022-06-27 10:07:15 GMT 53.246265 -1.849382 6,975 136 283 -60
2022-06-27 10:07:12 GMT 53.249390 -1.852840 6,975 132 289 0
2022-06-27 10:07:10 GMT 53.250923 -1.855501 7,000 130 294 0
2022-06-27 10:07:07 GMT 53.253414 -1.860211 7,000 130 295 0
2022-06-27 10:07:05 GMT 53.254799 -1.862707 7,000 129 301 0
2022-06-27 10:07:02 GMT 53.257107 -1.867152 7,000 129 292 0
2022-06-27 10:06:56 GMT 53.262241 -1.876698 7,000 127 303 0
2022-06-27 10:06:52 GMT 53.269882 -1.892258 7,000 126 285 0
2022-06-27 10:06:47 GMT 53.269882 -1.892258 7,000 126 285 0
2022-06-27 10:06:40 GMT 53.275970 -1.905302 7,000 127 297 -60
2022-06-27 10:06:39 GMT 53.275970 -1.905302 7,000 127 282 -60
2022-06-27 10:06:32 GMT 53.281750 -1.918626 7,000 125 287 0
2022-06-27 10:06:31 GMT 53.281750 -1.918626 7,000 125 287 0
2022-06-27 10:06:24 GMT 53.287010 -1.930774 7,000 125 278 0
2022-06-27 10:06:16 GMT 53.294071 -1.944781 7,025 121 290 60
2022-06-27 10:06:15 GMT 53.294071 -1.944781 7,025 115 269 0
2022-06-27 10:06:11 GMT 53.296219 -1.951237 7,025 106 273 0
2022-06-27 10:06:02 GMT 53.303284 -1.969131 7,025 91 286 0
2022-06-27 10:05:58 GMT 53.305397 -1.983938 7,000 74 293 0
2022-06-27 10:05:53 GMT 53.304913 -2.003896 7,000 38 368 0
2022-06-27 10:05:44 GMT 53.304913 -2.003896 7,000 38 368 0
2022-06-27 10:05:38 GMT 53.302326 -2.017905 7,000 30 268 0
2022-06-27 10:05:34 GMT 53.299763 -2.024336 7,000 358 229 0
2022-06-27 10:05:32 GMT 53.297997 -2.027435 7,000 346 226 0
2022-06-27 10:05:14 GMT 53.265278 -2.053927 7,000 330 254 0
2022-06-27 10:05:02 GMT 53.265263 -2.053919 7,025 319 272 0
2022-06-27 10:05:00 GMT 53.263851 -2.053154 7,025 318 271 0
2022-06-27 10:04:28 GMT 53.231468 -2.017734 7,000 305 298 0
2022-06-27 10:04:16 GMT 53.222473 -1.995797 6,975 308 319 -120
2022-06-27 10:04:11 GMT 53.215328 -1.980270 6,975 305 308 -60
2022-06-27 10:04:08 GMT 53.215328 -1.980270 7,000 305 308 -60
2022-06-27 10:04:07 GMT 53.215328 -1.980270 7,000 305 302 -60
2022-06-27 10:04:04 GMT 53.213005 -1.974600 7,000 306 303 -60
2022-06-27 10:04:01 GMT 53.209694 -1.969008 7,000 305 335 -60
2022-06-27 10:03:56 GMT 53.207321 -1.962229 7,000 303 322 0
2022-06-27 10:03:54 GMT 53.204731 -1.954609 7,025 309 291 60
2022-06-27 10:03:52 GMT 53.204731 -1.954609 7,025 309 291 60
2022-06-27 10:03:49 GMT 53.201855 -1.947976 7,025 305 299 60
2022-06-27 10:03:48 GMT 53.201855 -1.947976 7,025 304 276 120
2022-06-27 10:03:46 GMT 53.200378 -1.945441 7,025 301 279 60
2022-06-27 10:03:44 GMT 53.199051 -1.942866 7,025 300 281 60
2022-06-27 10:03:42 GMT 53.197636 -1.940480 7,025 296 271 60
2022-06-27 10:03:37 GMT 53.194176 -1.932058 7,025 283 288 0
2022-06-27 10:03:33 GMT 53.192394 -1.924266 7,025 282 277 0
2022-06-27 10:03:30 GMT 53.190018 -1.915099 7,000 265 280 0
2022-06-27 10:03:28 GMT 53.190018 -1.915099 7,000 265 280 0
2022-06-27 10:03:26 GMT 53.189663 -1.912466 7,000 264 278 0
2022-06-27 10:03:19 GMT 53.189056 -1.895700 7,000 254 256 0
2022-06-27 10:03:18 GMT 53.189056 -1.895700 7,000 244 270 0
2022-06-27 10:03:16 GMT 53.189552 -1.892238 7,000 243 257 0
2022-06-27 10:03:08 GMT 53.192223 -1.874595 7,000 225 264 0
2022-06-27 10:03:07 GMT 53.192223 -1.874595 7,000 223 249 0
2022-06-27 10:03:02 GMT 53.194527 -1.867430 7,000 214 264 0
2022-06-27 10:02:53 GMT 53.202106 -1.852166 7,000 202 258 -60
2022-06-27 10:02:52 GMT 53.214115 -1.840462 7,000 190 284 -60
2022-06-27 10:02:41 GMT 53.214115 -1.840462 7,025 190 284 -60
2022-06-27 10:02:34 GMT 53.221897 -1.837043 7,025 179 269 0
2022-06-27 10:02:33 GMT 53.221897 -1.837043 7,025 175 272 60
2022-06-27 10:02:30 GMT 53.225266 -1.836784 7,025 167 294 60
2022-06-27 10:02:27 GMT 53.228848 -1.836737 7,025 164 290 60
2022-06-27 10:02:25 GMT 53.231121 -1.836865 7,025 153 289 60
2022-06-27 10:02:22 GMT 53.234249 -1.837791 7,025 151 288 0
2022-06-27 10:02:14 GMT 53.244717 -1.844864 7,000 142 293 0
2022-06-27 10:02:13 GMT 53.244717 -1.844864 7,000 136 291 0
2022-06-27 10:02:04 GMT 53.254658 -1.857533 7,000 129 298 0
2022-06-27 10:02:03 GMT 53.256050 -1.860154 7,000 130 309 0
2022-06-27 10:02:01 GMT 53.256050 -1.860154 7,000 130 309 0
2022-06-27 10:01:59 GMT 53.257889 -1.862842 7,000 128 439 0
2022-06-27 10:01:51 GMT 53.267361 -1.883396 7,000 128 295 0
2022-06-27 10:01:47 GMT 53.267361 -1.883396 7,000 128 295 0
2022-06-27 10:01:45 GMT 53.269215 -1.886362 7,000 124 371 0
2022-06-27 10:01:33 GMT 53.289455 -1.930332 6,975 123 282 0
2022-06-27 10:01:26 GMT 53.289463 -1.930353 7,000 123 282 0
2022-06-27 10:01:19 GMT 53.289474 -1.930379 7,000 108 326 0
2022-06-27 10:01:06 GMT 53.305351 -1.974579 7,025 101 269 0
2022-06-27 10:00:54 GMT 53.305363 -1.974613 7,025 85 261 0
2022-06-27 10:00:52 GMT 53.306347 -1.977632 7,000 66 267 0
2022-06-27 10:00:43 GMT 53.305134 -2.013002 7,000 55 288 0
2022-06-27 10:00:38 GMT 53.305126 -2.013031 7,000 46 271 0
2022-06-27 10:00:34 GMT 53.305119 -2.013056 7,025 19 249 0
2022-06-27 10:00:28 GMT 53.301647 -2.024075 7,000 2 243 0
2022-06-27 10:00:13 GMT 53.286995 -2.047232 7,000 346 259 0
2022-06-27 10:00:11 GMT 53.284985 -2.048959 7,000 330 255 0
2022-06-27 10:00:07 GMT 53.280090 -2.050899 7,000 327 259 0
2022-06-27 09:59:41 GMT 53.248047 -2.044774 7,000 309 318 0
2022-06-27 09:59:29 GMT 53.236195 -2.027777 7,000 306 300 0
2022-06-27 09:59:26 GMT 53.234127 -2.023748 7,000 305 290 -60
2022-06-27 09:59:02 GMT 53.213863 -1.977964 7,000 305 324 0
2022-06-27 09:58:53 GMT 53.204433 -1.954642 7,000 304 282 0
2022-06-27 09:58:49 GMT 53.204426 -1.954620 7,000 299 299 0
2022-06-27 09:58:47 GMT 53.204411 -1.954591 7,000 301 282 0
2022-06-27 09:58:39 GMT 53.192734 -1.928768 7,025 294 291 0
2022-06-27 09:58:34 GMT 53.192722 -1.928743 7,025 290 280 60
2022-06-27 09:58:30 GMT 53.192711 -1.928705 7,000 285 279 0
2022-06-27 09:58:22 GMT 53.188457 -1.909882 7,000 272 292 0
2022-06-27 09:58:21 GMT 53.188457 -1.909882 7,000 271 271 0
2022-06-27 09:58:14 GMT 53.186714 -1.893790 7,000 263 288 60
2022-06-27 09:58:13 GMT 53.186714 -1.893790 7,025 259 260 60
2022-06-27 09:58:11 GMT 53.186710 -1.891881 7,025 256 271 60
2022-06-27 09:58:03 GMT 53.188152 -1.872798 7,000 243 291 0
2022-06-27 09:58:02 GMT 53.188152 -1.872798 7,000 242 277 0
2022-06-27 09:57:59 GMT 53.189346 -1.866581 7,000 236 260 0
2022-06-27 09:57:56 GMT 53.190540 -1.862084 7,000 230 270 0
2022-06-27 09:57:47 GMT 53.196926 -1.845405 7,000 220 301 0
2022-06-27 09:57:46 GMT 53.196926 -1.845405 7,000 217 280 0
2022-06-27 09:57:42 GMT 53.199989 -1.840268 7,000 212 285 0
2022-06-27 09:57:34 GMT 53.209709 -1.828491 7,000 201 295 0
2022-06-27 09:57:33 GMT 53.209709 -1.828491 7,000 195 265 0
2022-06-27 09:57:29 GMT 53.213192 -1.826575 7,000 188 276 0
2022-06-27 09:57:26 GMT 53.216633 -1.824266 7,000 181 276 0
2022-06-27 09:57:23 GMT 53.223461 -1.822505 7,000 173 287 0
2022-06-27 09:57:20 GMT 53.223461 -1.822505 7,000 173 287 0
2022-06-27 09:57:18 GMT 53.225590 -1.822292 7,000 170 285 0
2022-06-27 09:57:13 GMT 53.231716 -1.822518 7,000 164 289 0
2022-06-27 09:57:08 GMT 53.237808 -1.823929 7,000 158 313 0
2022-06-27 09:57:06 GMT 53.240261 -1.825202 7,000 156 303 0
2022-06-27 09:57:02 GMT 53.248898 -1.831386 7,000 141 287 -60
2022-06-27 09:56:58 GMT 53.251015 -1.832677 7,000 128 311 -60
2022-06-27 09:56:56 GMT 53.251015 -1.832677 7,000 128 311 -60
2022-06-27 09:56:51 GMT 53.254967 -1.839054 7,000 107 385 0
2022-06-27 09:56:48 GMT 53.257835 -1.843651 7,000 104 302 0
2022-06-27 09:56:45 GMT 53.265541 -1.864026 7,000 88 281 0
2022-06-27 09:56:38 GMT 53.265541 -1.864026 7,000 88 281 0
2022-06-27 09:56:37 GMT 53.265541 -1.864026 7,025 87 275 0
2022-06-27 09:56:24 GMT 53.267845 -1.913713 7,000 76 281 0
2022-06-27 09:56:16 GMT 53.267845 -1.913752 7,000 70 315 -60
2022-06-27 09:56:12 GMT 53.267838 -1.913792 6,975 69 291 -120
2022-06-27 09:56:03 GMT 53.263538 -1.934348 7,000 67 290 -60
2022-06-27 09:55:58 GMT 53.261463 -1.942770 7,000 67 313 0
2022-06-27 09:55:55 GMT 53.259346 -1.951094 7,000 66 288 0
2022-06-27 09:55:53 GMT 53.259308 -1.951252 7,000 67 298 -180
2022-06-27 09:55:50 GMT 53.257980 -1.956919 7,025 70 292 -120
2022-06-27 09:55:43 GMT 53.254059 -1.972958 7,025 70 289 -240
2022-06-27 09:55:41 GMT 53.253090 -1.976633 7,025 73 282 -300
2022-06-27 09:55:29 GMT 53.247177 -1.999162 7,025 75 289 -360
2022-06-27 09:55:14 GMT 53.239059 -2.031218 6,975 78 286 -480
2022-06-27 09:54:57 GMT 53.234528 -2.067215 7,150 78 293 -480
2022-06-27 09:54:55 GMT 53.233952 -2.070955 7,175 78 289 -420
2022-06-27 09:54:34 GMT 53.228981 -2.115220 7,300 78 311 -360
2022-06-27 09:54:21 GMT 53.225426 -2.144469 7,400 79 315 -360
2022-06-27 09:54:19 GMT 53.225025 -2.148320 7,425 79 312 -540
2022-06-27 09:54:17 GMT 53.224583 -2.152587 7,450 78 303 -540
2022-06-27 09:54:15 GMT 53.224007 -2.156462 7,475 79 299 -540
2022-06-27 09:54:06 GMT 53.221558 -2.178987 7,550 80 283 -480
2022-06-27 09:54:02 GMT 53.221001 -2.184390 7,600 79 298 -300
2022-06-27 09:53:57 GMT 53.219795 -2.194781 7,625 79 314 -420
2022-06-27 09:53:54 GMT 53.218933 -2.201475 7,650 79 316 -480
2022-06-27 09:53:50 GMT 53.218452 -2.209691 7,675 78 314 -420
2022-06-27 09:53:48 GMT 53.218201 -2.212982 7,700 78 313 -480
2022-06-27 09:53:44 GMT 53.216793 -2.222632 7,750 78 323 -300
2022-06-27 09:53:39 GMT 53.215328 -2.234416 7,800 78 307 -300
2022-06-27 09:53:32 GMT 53.213387 -2.251659 7,825 78 328 -480
2022-06-27 09:53:31 GMT 53.213387 -2.251659 7,850 79 317 -360
2022-06-27 09:53:23 GMT 53.211029 -2.271221 7,900 79 318 -540
2022-06-27 09:53:22 GMT 53.211029 -2.271221 7,925 79 330 -420
2022-06-27 09:53:19 GMT 53.210270 -2.277995 7,925 80 321 -540
2022-06-27 09:53:17 GMT 53.209908 -2.282235 7,925 79 310 -540
2022-06-27 09:53:15 GMT 53.209663 -2.285921 7,950 77 310 -600
2022-06-27 09:53:13 GMT 53.209152 -2.289139 7,975 78 328 -540
2022-06-27 09:53:07 GMT 53.207287 -2.305513 8,025 79 322 -540
2022-06-27 09:53:06 GMT 53.206604 -2.311569 8,050 78 306 -540
2022-06-27 09:53:03 GMT 53.205963 -2.315557 8,075 79 310 -540
2022-06-27 09:53:01 GMT 53.205963 -2.315557 8,075 79 310 -540
2022-06-27 09:52:53 GMT 53.203594 -2.335654 8,150 80 300 -540
2022-06-27 09:52:45 GMT 53.200432 -2.366952 8,200 79 315 -540
2022-06-27 09:52:38 GMT 53.200432 -2.366952 8,275 79 315 -540
2022-06-27 09:52:30 GMT 53.198097 -2.384982 8,350 80 312 -420
2022-06-27 09:52:22 GMT 53.196194 -2.402809 8,400 78 327 -420
2022-06-27 09:52:21 GMT 53.196194 -2.402809 8,400 79 325 -420
2022-06-27 09:52:19 GMT 53.195427 -2.409755 8,425 79 316 -420
2022-06-27 09:52:17 GMT 53.195427 -2.409755 8,425 79 316 -420
2022-06-27 09:52:10 GMT 53.193336 -2.427568 8,475 79 327 -600
2022-06-27 09:52:03 GMT 53.191570 -2.443434 8,525 81 330 -600
2022-06-27 09:52:02 GMT 53.191570 -2.443434 8,550 79 342 -360
2022-06-27 09:52:00 GMT 53.191113 -2.447583 8,550 79 324 -360
2022-06-27 09:51:58 GMT 53.190662 -2.451502 8,575 79 322 -300
2022-06-27 09:51:56 GMT 53.190212 -2.455700 8,600 80 312 -360
2022-06-27 09:51:48 GMT 53.188026 -2.475672 8,675 79 316 -300
2022-06-27 09:51:45 GMT 53.187714 -2.479184 8,675 79 318 -420
2022-06-27 09:51:36 GMT 53.185207 -2.501380 8,725 79 322 -420
2022-06-27 09:51:35 GMT 53.185207 -2.501380 8,725 79 301 -540
2022-06-27 09:51:32 GMT 53.184441 -2.508176 8,750 80 305 -180
2022-06-27 09:51:28 GMT 53.183662 -2.515612 8,800 80 296 -420
2022-06-27 09:51:18 GMT 53.181068 -2.539264 8,875 81 283 -360
2022-06-27 09:51:17 GMT 53.179245 -2.558066 8,900 79 334 -60
2022-06-27 09:51:09 GMT 53.179245 -2.558066 8,950 79 334 -60
2022-06-27 09:51:08 GMT 53.179245 -2.558066 8,950 79 306 -60
2022-06-27 09:50:59 GMT 53.177036 -2.580185 9,000 80 332 -60
2022-06-27 09:50:52 GMT 53.174835 -2.596690 9,000 80 311 -60
2022-06-27 09:50:51 GMT 53.174835 -2.596690 9,000 80 302 -60
2022-06-27 09:50:48 GMT 53.174145 -2.603163 9,000 79 299 -120
2022-06-27 09:50:41 GMT 53.172745 -2.619971 9,050 78 350 -60
2022-06-27 09:50:38 GMT 53.172600 -2.622956 9,025 76 350 -180
2022-06-27 09:50:33 GMT 53.170532 -2.634450 9,025 78 318 -300
2022-06-27 09:50:25 GMT 53.168041 -2.656154 9,050 78 318 -360
2022-06-27 09:50:24 GMT 53.168041 -2.656154 9,050 78 318 -360
2022-06-27 09:50:22 GMT 53.167377 -2.659970 9,050 78 313 -360
2022-06-27 09:50:14 GMT 53.165268 -2.679666 9,075 78 320 -540
2022-06-27 09:50:13 GMT 53.165268 -2.679666 9,100 78 316 -720
2022-06-27 09:50:05 GMT 53.162659 -2.700501 9,175 78 346 -780
2022-06-27 09:50:02 GMT 53.162075 -2.704666 9,175 78 314 -780
2022-06-27 09:50:00 GMT 53.161716 -2.708524 9,200 76 325 -780
2022-06-27 09:49:58 GMT 53.161156 -2.712542 9,225 76 305 -780
2022-06-27 09:49:51 GMT 53.158329 -2.734068 9,375 74 314 -600
2022-06-27 09:49:48 GMT 53.158329 -2.734068 9,375 74 314 -600
2022-06-27 09:49:41 GMT 53.155544 -2.750812 9,450 74 324 -660
2022-06-27 09:49:40 GMT 53.155544 -2.750812 9,475 74 317 -600
2022-06-27 09:49:37 GMT 53.154270 -2.757662 9,475 74 319 -720
2022-06-27 09:49:31 GMT 53.151672 -2.773277 9,575 74 308 -660
2022-06-27 09:49:22 GMT 53.148716 -2.792177 9,650 74 325 -780
2022-06-27 09:49:12 GMT 53.144882 -2.813951 9,750 76 324 -660
2022-06-27 09:49:11 GMT 53.144444 -2.816991 9,775 72 326 -720
2022-06-27 09:49:09 GMT 53.144444 -2.816991 9,850 72 326 -720
2022-06-27 09:49:00 GMT 53.140759 -2.840835 9,950 72 312 -480
2022-06-27 09:48:59 GMT 53.140759 -2.840835 9,975 69 305 -660
2022-06-27 09:48:57 GMT 53.139881 -2.847262 9,975 61 324 -660
2022-06-27 09:48:55 GMT 53.139881 -2.847262 10,000 61 324 -660
2022-06-27 09:48:46 GMT 53.134586 -2.869364 10,075 52 353 -600
2022-06-27 09:48:43 GMT 53.133427 -2.872537 10,100 49 337 -780
2022-06-27 09:48:38 GMT 53.128632 -2.882750 10,175 48 348 -960
2022-06-27 09:48:36 GMT 53.126743 -2.886180 10,225 50 349 -1080
2022-06-27 09:48:33 GMT 53.120537 -2.897801 10,250 56 348 -1500
2022-06-27 09:48:29 GMT 53.120537 -2.897801 10,275 56 348 -1500
2022-06-27 09:48:26 GMT 53.115025 -2.910228 10,325 62 334 -1500
2022-06-27 09:48:23 GMT 53.115025 -2.910228 10,375 62 334 -1500
2022-06-27 09:48:21 GMT 53.113800 -2.914683 10,450 69 316 -1260
2022-06-27 09:48:19 GMT 53.111160 -2.921658 10,550 82 326 -1380
2022-06-27 09:48:15 GMT 53.110180 -2.925331 10,600 85 322 -1200
2022-06-27 09:48:13 GMT 53.109161 -2.928725 10,700 90 329 180
2022-06-27 09:48:09 GMT 53.108990 -2.939032 10,700 92 328 -960
2022-06-27 09:48:01 GMT 53.108845 -2.960461 10,950 95 325 -840
2022-06-27 09:48:00 GMT 53.108845 -2.960461 11,000 95 306 -780
2022-06-27 09:47:57 GMT 53.109100 -2.966601 11,025 95 347 -900
2022-06-27 09:47:47 GMT 53.110592 -2.991591 11,175 93 331 -720
2022-06-27 09:47:38 GMT 53.111721 -3.012848 11,325 88 338 -840
2022-06-27 09:47:35 GMT 53.111626 -3.016246 11,325 82 344 -1080
2022-06-27 09:47:24 GMT 53.111168 -3.045338 11,500 74 340 -1200
2022-06-27 09:47:21 GMT 53.110802 -3.048751 11,525 70 336 -1260
2022-06-27 09:47:13 GMT 53.107014 -3.070482 11,725 61 369 -1260
2022-06-27 09:47:12 GMT 53.107014 -3.070482 11,750 59 349 -1200
2022-06-27 09:47:10 GMT 53.105873 -3.073535 11,775 58 358 -1380
2022-06-27 09:47:07 GMT 53.102310 -3.087084 11,850 49 374 -1380
2022-06-27 09:47:04 GMT 53.102310 -3.087084 11,875 49 374 -1380
2022-06-27 09:47:01 GMT 53.099342 -3.093661 11,950 46 371 -1380
2022-06-27 09:46:56 GMT 53.094513 -3.102959 12,050 43 387 -1560
2022-06-27 09:46:54 GMT 53.092838 -3.107234 12,125 37 374 -1380
2022-06-27 09:46:51 GMT 53.089081 -3.112252 12,150 36 376 -1500
2022-06-27 09:46:49 GMT 53.086533 -3.115443 12,200 30 361 -1500
2022-06-27 09:46:47 GMT 53.084366 -3.118241 12,250 28 370 -1500
2022-06-27 09:46:45 GMT 53.081867 -3.121269 12,350 23 359 -1260
2022-06-27 09:46:41 GMT 53.077557 -3.126117 12,450 12 376 -1200
2022-06-27 09:46:38 GMT 53.070229 -3.130061 12,475 6 384 -1020
2022-06-27 09:46:34 GMT 53.067493 -3.130905 12,525 4 375 -1140
2022-06-27 09:46:31 GMT 53.063141 -3.132187 12,625 1 388 -1020
2022-06-27 09:46:28 GMT 53.057808 -3.133336 12,700 354 408 -1020
2022-06-27 09:46:24 GMT 53.051762 -3.133449 12,725 350 369 -960
2022-06-27 09:46:22 GMT 53.048866 -3.132842 12,800 351 365 -840
2022-06-27 09:46:17 GMT 53.040291 -3.129822 12,900 348 344 -660
2022-06-27 09:46:15 GMT 53.037766 -3.129544 12,900 345 350 0
2022-06-27 09:46:14 GMT 53.037766 -3.129544 12,900 344 339 -300
2022-06-27 09:46:12 GMT 53.035000 -3.129295 12,925 335 343 0
2022-06-27 09:46:10 GMT 53.032440 -3.128031 12,950 329 382 -60
2022-06-27 09:46:07 GMT 53.027237 -3.124635 13,000 326 369 0
2022-06-27 09:46:06 GMT 53.027237 -3.124635 13,000 323 327 0
2022-06-27 09:46:04 GMT 53.025414 -3.122804 13,000 320 359 0
2022-06-27 09:46:01 GMT 53.021652 -3.118488 13,000 317 353 0
2022-06-27 09:45:58 GMT 53.016842 -3.111618 13,000 313 300 0
2022-06-27 09:45:57 GMT 53.016842 -3.111618 13,000 308 347 0
2022-06-27 09:45:56 GMT 53.016842 -3.111618 13,000 309 353 0
2022-06-27 09:45:51 GMT 53.010712 -3.101929 13,000 310 345 0
2022-06-27 09:45:50 GMT 53.010712 -3.101929 13,000 301 333 0
2022-06-27 09:45:45 GMT 53.006725 -3.090832 13,000 295 322 0
2022-06-27 09:45:43 GMT 53.004795 -3.086889 13,000 286 341 0
2022-06-27 09:45:38 GMT 53.003002 -3.080105 13,000 276 310 -60
2022-06-27 09:45:35 GMT 53.002186 -3.072418 13,000 267 362 0
2022-06-27 09:45:32 GMT 53.002460 -3.062435 13,000 268 288 0
2022-06-27 09:45:26 GMT 53.000484 -3.038857 13,025 257 282 0
2022-06-27 09:45:22 GMT 53.000488 -3.038834 13,025 251 283 60
2022-06-27 09:45:19 GMT 53.000492 -3.038795 13,025 252 325 0
2022-06-27 09:45:13 GMT 53.003540 -3.016204 13,025 249 292 0
2022-06-27 09:45:09 GMT 53.003548 -3.016162 13,025 246 294 0
2022-06-27 09:45:07 GMT 53.003578 -3.016050 13,000 236 301 -60
2022-06-27 09:45:05 GMT 53.004780 -3.011721 13,000 235 284 -60
2022-06-27 09:45:02 GMT 53.007401 -3.002612 13,000 232 274 0
2022-06-27 09:44:59 GMT 53.007462 -3.002433 13,000 227 292 120
2022-06-27 09:44:50 GMT 53.015350 -2.987344 13,025 223 295 120
2022-06-27 09:44:49 GMT 53.015350 -2.987344 13,025 223 279 120
2022-06-27 09:44:47 GMT 53.016708 -2.985275 13,025 224 274 60
2022-06-27 09:44:39 GMT 53.024750 -2.972521 13,000 223 286 0
2022-06-27 09:44:31 GMT 53.031826 -2.961324 12,975 222 308 -60
2022-06-27 09:44:30 GMT 53.035873 -2.955092 12,975 221 281 -120
2022-06-27 09:44:21 GMT 53.040375 -2.948165 13,000 221 293 -60
2022-06-27 09:44:13 GMT 53.047585 -2.938188 13,000 223 296 -60
2022-06-27 09:44:10 GMT 53.049103 -2.936067 13,000 225 293 0
2022-06-27 09:44:02 GMT 53.057507 -2.922967 13,025 227 294 60
2022-06-27 09:43:53 GMT 53.064194 -2.910771 13,000 213 295 0
2022-06-27 09:43:52 GMT 53.064194 -2.910771 13,000 213 281 0
2022-06-27 09:43:43 GMT 53.073521 -2.898404 13,000 200 306 0
2022-06-27 09:43:42 GMT 53.082623 -2.891157 13,000 195 301 0
2022-06-27 09:43:35 GMT 53.082623 -2.891157 13,000 195 301 0
2022-06-27 09:43:34 GMT 53.082623 -2.891157 13,000 193 298 0
2022-06-27 09:43:26 GMT 53.094296 -2.886078 13,000 184 306 -60
2022-06-27 09:43:23 GMT 53.095951 -2.885688 13,000 173 301 0
2022-06-27 09:43:15 GMT 53.108105 -2.884672 13,000 160 302 0
2022-06-27 09:43:07 GMT 53.117306 -2.890626 13,000 150 306 0
2022-06-27 09:42:59 GMT 53.126564 -2.898721 13,000 135 319 0
2022-06-27 09:42:51 GMT 53.134827 -2.908857 13,000 127 325 0
2022-06-27 09:42:48 GMT 53.136490 -2.911411 13,000 121 318 0
2022-06-27 09:42:40 GMT 53.144020 -2.928342 13,000 111 380 -60
2022-06-27 09:42:39 GMT 53.144020 -2.928342 13,000 110 319 -60
2022-06-27 09:42:36 GMT 53.146790 -2.938221 13,000 99 327 -60
2022-06-27 09:42:34 GMT 53.146790 -2.938221 13,000 99 327 -60
2022-06-27 09:42:32 GMT 53.147785 -2.942388 13,000 96 322 0
2022-06-27 09:42:28 GMT 53.149765 -2.955371 13,000 87 340 0
2022-06-27 09:42:26 GMT 53.149765 -2.955397 13,025 85 319 60
2022-06-27 09:42:17 GMT 53.150467 -2.978865 13,025 74 332 60
2022-06-27 09:42:16 GMT 53.150467 -2.978865 13,025 71 336 0
2022-06-27 09:42:06 GMT 53.147236 -3.004060 13,000 50 396 0
2022-06-27 09:42:05 GMT 53.144386 -3.012531 13,000 48 328 0
2022-06-27 09:42:01 GMT 53.144386 -3.012531 13,000 48 328 0
2022-06-27 09:41:58 GMT 53.110573 -3.075326 13,000 45 351 0
2022-06-27 09:41:42 GMT 53.110573 -3.075326 13,000 45 351 0
2022-06-27 09:41:33 GMT 53.110538 -3.075382 13,025 46 329 0
2022-06-27 09:41:29 GMT 53.110538 -3.075382 13,025 46 329 0
2022-06-27 09:41:26 GMT 53.110516 -3.075420 13,025 48 344 0
2022-06-27 09:41:19 GMT 53.097591 -3.097886 13,000 50 355 60
2022-06-27 09:41:15 GMT 53.097569 -3.097922 13,000 51 378 60
2022-06-27 09:41:13 GMT 53.097515 -3.098004 13,000 51 349 180
2022-06-27 09:41:11 GMT 53.095741 -3.100728 13,025 52 356 180
2022-06-27 09:41:08 GMT 53.093815 -3.107783 13,000 45 350 60
2022-06-27 09:41:04 GMT 53.087276 -3.120612 13,000 37 387 -120
2022-06-27 09:41:02 GMT 53.087276 -3.120612 12,975 37 454 -120
2022-06-27 09:40:58 GMT 53.083759 -3.125607 12,975 36 386 -180
2022-06-27 09:40:56 GMT 53.077354 -3.133101 12,975 34 403 -60
2022-06-27 09:40:53 GMT 53.077354 -3.133101 12,975 34 403 -60
2022-06-27 09:40:51 GMT 53.073917 -3.135397 12,975 37 344 0
2022-06-27 09:40:42 GMT 53.057102 -3.158272 13,025 30 377 60
2022-06-27 09:40:38 GMT 53.057102 -3.158272 13,025 30 377 60
2022-06-27 09:40:36 GMT 53.057056 -3.158319 13,025 28 390 60
2022-06-27 09:40:31 GMT 53.046860 -3.169328 13,025 27 377 60
2022-06-27 09:40:28 GMT 53.046829 -3.169353 13,000 21 414 0
2022-06-27 09:40:24 GMT 53.039631 -3.175459 13,000 14 409 0
2022-06-27 09:40:23 GMT 53.039631 -3.175459 13,000 14 409 0
2022-06-27 09:40:20 GMT 53.034130 -3.178215 13,000 14 377 0
2022-06-27 09:40:18 GMT 53.032494 -3.180761 13,000 6 407 0
2022-06-27 09:40:14 GMT 53.024277 -3.183763 13,000 0 407 0
2022-06-27 09:40:13 GMT 53.024277 -3.183763 13,000 357 402 0
2022-06-27 09:40:10 GMT 53.018600 -3.184629 13,000 350 399 0
2022-06-27 09:40:08 GMT 53.015526 -3.184588 13,000 346 398 0
2022-06-27 09:40:06 GMT 53.012775 -3.184294 13,000 342 393 -60
2022-06-27 09:40:03 GMT 53.007996 -3.183114 13,000 337 406 -60
2022-06-27 09:40:01 GMT 53.004799 -3.181921 13,000 333 390 -60
2022-06-27 09:39:57 GMT 52.998001 -3.177898 13,000 327 403 -60
2022-06-27 09:39:55 GMT 52.994972 -3.175663 13,000 322 397 -60
2022-06-27 09:39:53 GMT 52.992546 -3.173300 13,000 319 382 -180
2022-06-27 09:39:50 GMT 52.988552 -3.168882 13,000 315 395 -180
2022-06-27 09:39:48 GMT 52.986034 -3.165948 13,000 310 393 -240
2022-06-27 09:39:45 GMT 52.982147 -3.160099 13,025 304 419 -360
2022-06-27 09:39:43 GMT 52.979839 -3.155835 13,025 300 402 -600
2022-06-27 09:39:41 GMT 52.978310 -3.152705 13,025 297 413 -840
2022-06-27 09:39:38 GMT 52.975410 -3.146239 13,050 292 423 -1020
2022-06-27 09:39:35 GMT 52.972729 -3.138762 13,050 288 438 -1380
2022-06-27 09:39:32 GMT 52.970028 -3.130006 13,100 273 405 -1500
2022-06-27 09:39:27 GMT 52.967522 -3.116374 13,125 258 392 -1680
2022-06-27 09:39:25 GMT 52.966877 -3.110984 13,175 255 375 -1320
2022-06-27 09:39:22 GMT 52.965611 -3.101704 13,250 246 370 -1740
2022-06-27 09:39:15 GMT 52.968960 -3.082658 13,425 241 387 -1560
2022-06-27 09:39:14 GMT 52.968960 -3.082658 13,500 237 394 -1380
2022-06-27 09:39:06 GMT 52.975952 -3.059733 13,675 229 428 -1140
2022-06-27 09:39:05 GMT 52.975952 -3.059733 13,800 228 406 -660
2022-06-27 09:39:02 GMT 52.978992 -3.052921 13,800 226 419 -600
2022-06-27 09:39:00 GMT 52.981094 -3.049239 13,875 226 406 -300
2022-06-27 09:38:57 GMT 52.984791 -3.042584 13,925 226 386 -300
2022-06-27 09:38:55 GMT 52.990517 -3.032559 13,975 225 445 -120
2022-06-27 09:38:52 GMT 52.990517 -3.032559 13,975 225 445 -120
2022-06-27 09:38:50 GMT 52.992893 -3.028488 13,975 226 390 -120
2022-06-27 09:38:48 GMT 52.994625 -3.025186 13,975 226 389 -120
2022-06-27 09:38:46 GMT 52.996376 -3.022287 13,975 226 392 -120
2022-06-27 09:38:42 GMT 53.000874 -3.013556 14,000 225 405 -60
2022-06-27 09:38:36 GMT 53.011143 -2.997097 14,000 227 390 0
2022-06-27 09:38:34 GMT 53.011143 -2.997097 14,025 227 390 0
2022-06-27 09:38:31 GMT 53.016075 -2.987840 14,025 225 413 300
2022-06-27 09:38:29 GMT 53.016075 -2.987840 14,025 225 413 300
2022-06-27 09:38:26 GMT 53.019897 -2.981258 14,025 225 419 360
2022-06-27 09:38:24 GMT 53.022316 -2.977227 14,025 226 412 480
2022-06-27 09:38:22 GMT 53.024429 -2.973555 14,025 226 404 600
2022-06-27 09:38:19 GMT 53.031464 -2.961375 14,000 225 413 480
2022-06-27 09:38:16 GMT 53.031464 -2.961375 13,975 225 413 480
2022-06-27 09:38:14 GMT 53.033764 -2.957650 13,950 225 413 420
2022-06-27 09:38:11 GMT 53.037415 -2.951250 13,925 226 411 420
2022-06-27 09:38:09 GMT 53.039597 -2.947257 13,900 225 400 300
2022-06-27 09:38:05 GMT 53.044254 -2.939475 13,875 225 411 240
2022-06-27 09:38:03 GMT 53.046616 -2.935621 13,850 225 396 240
2022-06-27 09:37:59 GMT 53.052231 -2.927035 13,850 229 376 240
2022-06-27 09:37:57 GMT 53.056290 -2.919197 13,825 226 384 240
2022-06-27 09:37:55 GMT 53.056290 -2.919197 13,800 226 384 240
2022-06-27 09:37:52 GMT 53.059120 -2.913828 13,800 226 394 360
2022-06-27 09:37:49 GMT 53.062599 -2.907848 13,800 225 420 300
2022-06-27 09:37:47 GMT 53.064354 -2.904387 13,800 225 407 480
2022-06-27 09:37:38 GMT 53.076885 -2.883110 13,750 224 419 420
2022-06-27 09:37:37 GMT 53.076885 -2.883110 13,750 224 388 540
2022-06-27 09:37:34 GMT 53.080173 -2.877477 13,725 224 392 720
2022-06-27 09:37:27 GMT 53.090630 -2.860181 13,675 222 374 1140
2022-06-27 09:37:26 GMT 53.090630 -2.860181 13,650 222 374 1500
2022-06-27 09:37:24 GMT 53.094448 -2.854453 13,625 224 406 2520
2022-06-27 09:37:19 GMT 53.097980 -2.848733 13,575 225 417 3060
2022-06-27 09:37:16 GMT 53.101707 -2.842844 13,525 225 409 3300
2022-06-27 09:37:14 GMT 53.104046 -2.839025 13,425 225 391 3420
2022-06-27 09:37:11 GMT 53.108089 -2.832035 13,225 225 384 3480
2022-06-27 09:37:01 GMT 53.120579 -2.810615 12,725 226 430 3240
2022-06-27 09:37:00 GMT 53.120579 -2.810615 12,600 226 382 3420
2022-06-27 09:36:56 GMT 53.124779 -2.803567 12,350 226 407 3180
2022-06-27 09:36:53 GMT 53.128456 -2.797108 12,300 226 418 2760
2022-06-27 09:36:50 GMT 53.132690 -2.789841 12,000 225 395 2400
2022-06-27 09:36:47 GMT 53.136471 -2.782539 11,950 224 343 2760
2022-06-27 09:36:45 GMT 53.137600 -2.781124 11,675 225 418 2820
2022-06-27 09:36:43 GMT 53.139870 -2.777219 11,700 225 399 2760
2022-06-27 09:36:40 GMT 53.152416 -2.756207 11,625 224 390 3180
2022-06-27 09:36:33 GMT 53.152416 -2.756207 11,325 224 390 3180
2022-06-27 09:36:32 GMT 53.152416 -2.756207 11,275 225 397 3300
2022-06-27 09:36:24 GMT 53.163822 -2.736640 10,975 223 391 3300
2022-06-27 09:36:23 GMT 53.163822 -2.736640 10,900 224 366 3240
2022-06-27 09:36:20 GMT 53.166615 -2.732551 10,750 225 386 3120
2022-06-27 09:36:17 GMT 53.170326 -2.726298 10,525 225 394 3180
2022-06-27 09:36:14 GMT 53.174118 -2.719854 10,350 225 377 3360
2022-06-27 09:36:11 GMT 53.177361 -2.714431 10,100 225 380 2580
2022-06-27 09:36:06 GMT 53.182323 -2.705983 9,975 225 419 3000
2022-06-27 09:36:03 GMT 53.186359 -2.699183 9,875 225 410 3180
2022-06-27 09:36:01 GMT 53.188473 -2.695650 9,650 225 395 2100
2022-06-27 09:35:59 GMT 53.190205 -2.692807 9,650 225 397 3060
2022-06-27 09:35:56 GMT 53.193882 -2.686763 9,500 225 403 1980
2022-06-27 09:35:53 GMT 53.198032 -2.679465 9,350 225 373 2760
2022-06-27 09:35:51 GMT 53.200306 -2.675714 9,200 225 352 2160
2022-06-27 09:35:46 GMT 53.205189 -2.667523 9,050 225 382 1980
2022-06-27 09:35:44 GMT 53.207474 -2.663666 8,900 225 355 1740
2022-06-27 09:35:40 GMT 53.211063 -2.657667 8,750 225 378 1560
2022-06-27 09:35:32 GMT 53.221577 -2.639944 8,525 225 366 1380
2022-06-27 09:35:31 GMT 53.221577 -2.639944 8,475 225 366 1560
2022-06-27 09:35:29 GMT 53.223152 -2.637315 8,475 225 386 1860
2022-06-27 09:35:21 GMT 53.234119 -2.618553 8,325 222 300 2520
2022-06-27 09:35:20 GMT 53.234119 -2.618553 8,300 225 328 2820
2022-06-27 09:35:18 GMT 53.235493 -2.616260 8,275 224 363 3000
2022-06-27 09:35:15 GMT 53.239079 -2.610345 8,175 225 356 2880
2022-06-27 09:35:13 GMT 53.241577 -2.605827 8,075 224 321 3000
2022-06-27 09:35:10 GMT 53.243744 -2.602576 8,025 225 337 2940
2022-06-27 09:35:08 GMT 53.245602 -2.599183 7,950 224 335 2820
2022-06-27 09:35:01 GMT 53.253941 -2.585478 7,500 225 344 2040
2022-06-27 09:34:53 GMT 53.269573 -2.559429 7,125 225 338 1380
2022-06-27 09:34:45 GMT 53.269573 -2.559429 6,900 225 338 1380
2022-06-27 09:34:44 GMT 53.269573 -2.559429 6,900 226 334 1500
2022-06-27 09:34:36 GMT 53.278534 -2.543861 6,675 226 345 1560
2022-06-27 09:34:32 GMT 53.281727 -2.538169 6,600 224 328 1500
2022-06-27 09:34:30 GMT 53.283562 -2.535424 6,525 225 325 1740
2022-06-27 09:34:28 GMT 53.285454 -2.531835 6,450 224 303 1620
2022-06-27 09:34:26 GMT 53.287067 -2.529314 6,400 225 314 1080
2022-06-27 09:34:22 GMT 53.290665 -2.523038 6,350 223 281 2040
2022-06-27 09:34:20 GMT 53.292156 -2.520914 6,300 224 279 2580
2022-06-27 09:34:18 GMT 53.293819 -2.517853 6,250 225 288 2700
2022-06-27 09:34:16 GMT 53.295273 -2.515860 6,200 226 285 2700
2022-06-27 09:34:14 GMT 53.296818 -2.513294 6,175 228 275 3000
2022-06-27 09:34:07 GMT 53.303364 -2.502642 5,975 230 264 3300
2022-06-27 09:34:06 GMT 53.303364 -2.502642 5,875 236 276 3420
2022-06-27 09:33:58 GMT 53.310909 -2.487744 5,575 239 261 3840
2022-06-27 09:33:57 GMT 53.310909 -2.487744 5,475 242 251 3360
2022-06-27 09:33:53 GMT 53.313534 -2.481583 5,300 249 259 2880
2022-06-27 09:33:50 GMT 53.315022 -2.477249 5,100 250 252 3120
2022-06-27 09:33:43 GMT 53.318710 -2.463947 4,625 257 241 2220
2022-06-27 09:33:42 GMT 53.318710 -2.463947 4,550 257 241 2220
2022-06-27 09:33:32 GMT 53.321735 -2.444362 4,100 269 235 1800
2022-06-27 09:33:31 GMT 53.321735 -2.444362 4,075 272 220 2220
2022-06-27 09:33:27 GMT 53.322193 -2.435482 3,925 275 210
2022-06-27 09:33:25 GMT 53.322193 -2.435482 3,875 275 210
2022-06-27 09:33:17 GMT 53.321419 -2.422483 3,675 266 359
2022-06-27 09:33:16 GMT 53.321522 -2.419703 3,625 285 167

Making use of Plane Finder data

You are free to use the raw flight data, aircraft information and images provided in this report for your own purposes provided the data is correctly attributed to Plane Finder. We ask that you please credit Plane Finder and link to planefinder.net in close proximity to the content.

Optionally one of the following logos (no smaller then 150x24px) can be used and must link to planefinder.net

Embedding the Plane Finder map

You are welcome to embed the Plane Finder playback map on your website to offer visitors a more interactive experience. We suggest using the following HTML code:

<iframe src="//planefinder.net/data/report/BY6408-G-OBYK-7700-squawk-2022-06-27/map" width="800" height="600" seamless="seamless"></iframe>

Where our data comes from

Plane Finder has a global network of data feeds and antenna radars that receive data broadcast directly from aircraft. The primary technologies used are ADS-B and MLAT. We also show feeds from the FAA and a FLARM glider feed.

Click here to find out more about the Plane Finder network.

How we collect our data